<gpx creator="Cyclotour.ca" version="1.1" xmlns:gpsies="http://www.gpsies.com/GPX/1/0" xmlns:xsi="http://www.w3.org/2001/XMLSchema-instance" xmlns="http://www.topografix.com/GPX/1/1" xsi:schemaLocation="http://www.topografix.com/GPX/1/1 http://www.topografix.com/GPX/1/1/gpx.xsd http://www.gpsies.com/GPX/1/0 http://www.gpsies.com/gpsies.xsd">
<trk>
<name>Parc national de la Mauricie(secteur st-mathieu) 2022</name>
<trkseg>
<trkpt lat="46.659430000" lon="-73.012540000">
<ele>0</ele>
<time>2026-09-04T07:19:24Z</time>
</trkpt>
<trkpt lat="46.659220000" lon="-73.012160000">
<ele>0</ele>
<time>2026-09-04T07:19:25Z</time>
</trkpt>
<trkpt lat="46.659410000" lon="-73.011940000">
<ele>0</ele>
<time>2026-09-04T07:19:26Z</time>
</trkpt>
<trkpt lat="46.659440000" lon="-73.011900000">
<ele>0</ele>
<time>2026-09-04T07:19:27Z</time>
</trkpt>
<trkpt lat="46.659440000" lon="-73.011900000">
<ele>0</ele>
<time>2026-09-04T07:19:28Z</time>
</trkpt>
<trkpt lat="46.660070000" lon="-73.011180000">
<ele>0</ele>
<time>2026-09-04T07:19:29Z</time>
</trkpt>
<trkpt lat="46.660300000" lon="-73.010910000">
<ele>0</ele>
<time>2026-09-04T07:19:30Z</time>
</trkpt>
<trkpt lat="46.660330000" lon="-73.010960000">
<ele>0</ele>
<time>2026-09-04T07:19:31Z</time>
</trkpt>
<trkpt lat="46.660330000" lon="-73.010960000">
<ele>0</ele>
<time>2026-09-04T07:19:32Z</time>
</trkpt>
<trkpt lat="46.660790000" lon="-73.011830000">
<ele>0</ele>
<time>2026-09-04T07:19:33Z</time>
</trkpt>
<trkpt lat="46.661040000" lon="-73.012250000">
<ele>0</ele>
<time>2026-09-04T07:19:34Z</time>
</trkpt>
<trkpt lat="46.661420000" lon="-73.012840000">
<ele>0</ele>
<time>2026-09-04T07:19:35Z</time>
</trkpt>
<trkpt lat="46.661620000" lon="-73.013040000">
<ele>0</ele>
<time>2026-09-04T07:19:36Z</time>
</trkpt>
<trkpt lat="46.661820000" lon="-73.013210000">
<ele>0</ele>
<time>2026-09-04T07:19:37Z</time>
</trkpt>
<trkpt lat="46.662120000" lon="-73.013320000">
<ele>0</ele>
<time>2026-09-04T07:19:38Z</time>
</trkpt>
<trkpt lat="46.662300000" lon="-73.013360000">
<ele>0</ele>
<time>2026-09-04T07:19:39Z</time>
</trkpt>
<trkpt lat="46.662650000" lon="-73.013480000">
<ele>0</ele>
<time>2026-09-04T07:19:40Z</time>
</trkpt>
<trkpt lat="46.662810000" lon="-73.013570000">
<ele>0</ele>
<time>2026-09-04T07:19:41Z</time>
</trkpt>
<trkpt lat="46.663000000" lon="-73.013730000">
<ele>0</ele>
<time>2026-09-04T07:19:42Z</time>
</trkpt>
<trkpt lat="46.663140000" lon="-73.013890000">
<ele>0</ele>
<time>2026-09-04T07:19:43Z</time>
</trkpt>
<trkpt lat="46.663400000" lon="-73.014350000">
<ele>0</ele>
<time>2026-09-04T07:19:44Z</time>
</trkpt>
<trkpt lat="46.663520000" lon="-73.014690000">
<ele>0</ele>
<time>2026-09-04T07:19:45Z</time>
</trkpt>
<trkpt lat="46.663560000" lon="-73.015010000">
<ele>0</ele>
<time>2026-09-04T07:19:46Z</time>
</trkpt>
<trkpt lat="46.663580000" lon="-73.015400000">
<ele>0</ele>
<time>2026-09-04T07:19:47Z</time>
</trkpt>
<trkpt lat="46.663510000" lon="-73.016400000">
<ele>0</ele>
<time>2026-09-04T07:19:48Z</time>
</trkpt>
<trkpt lat="46.663510000" lon="-73.016580000">
<ele>0</ele>
<time>2026-09-04T07:19:49Z</time>
</trkpt>
<trkpt lat="46.663540000" lon="-73.016840000">
<ele>0</ele>
<time>2026-09-04T07:19:50Z</time>
</trkpt>
<trkpt lat="46.663620000" lon="-73.017170000">
<ele>0</ele>
<time>2026-09-04T07:19:51Z</time>
</trkpt>
<trkpt lat="46.663690000" lon="-73.017390000">
<ele>0</ele>
<time>2026-09-04T07:19:52Z</time>
</trkpt>
<trkpt lat="46.663890000" lon="-73.017740000">
<ele>0</ele>
<time>2026-09-04T07:19:53Z</time>
</trkpt>
<trkpt lat="46.664020000" lon="-73.017920000">
<ele>0</ele>
<time>2026-09-04T07:19:54Z</time>
</trkpt>
<trkpt lat="46.664440000" lon="-73.018380000">
<ele>0</ele>
<time>2026-09-04T07:19:55Z</time>
</trkpt>
<trkpt lat="46.665030000" lon="-73.019010000">
<ele>0</ele>
<time>2026-09-04T07:19:56Z</time>
</trkpt>
<trkpt lat="46.665330000" lon="-73.019310000">
<ele>0</ele>
<time>2026-09-04T07:19:57Z</time>
</trkpt>
<trkpt lat="46.665930000" lon="-73.019890000">
<ele>0</ele>
<time>2026-09-04T07:19:58Z</time>
</trkpt>
<trkpt lat="46.666390000" lon="-73.020300000">
<ele>0</ele>
<time>2026-09-04T07:19:59Z</time>
</trkpt>
<trkpt lat="46.666750000" lon="-73.020680000">
<ele>0</ele>
<time>2026-09-04T07:20:00Z</time>
</trkpt>
<trkpt lat="46.667310000" lon="-73.021680000">
<ele>0</ele>
<time>2026-09-04T07:20:01Z</time>
</trkpt>
<trkpt lat="46.667440000" lon="-73.021860000">
<ele>0</ele>
<time>2026-09-04T07:20:02Z</time>
</trkpt>
<trkpt lat="46.667640000" lon="-73.022080000">
<ele>0</ele>
<time>2026-09-04T07:20:03Z</time>
</trkpt>
<trkpt lat="46.668020000" lon="-73.022250000">
<ele>0</ele>
<time>2026-09-04T07:20:04Z</time>
</trkpt>
<trkpt lat="46.668230000" lon="-73.022260000">
<ele>0</ele>
<time>2026-09-04T07:20:05Z</time>
</trkpt>
<trkpt lat="46.668450000" lon="-73.022190000">
<ele>0</ele>
<time>2026-09-04T07:20:06Z</time>
</trkpt>
<trkpt lat="46.668620000" lon="-73.022120000">
<ele>0</ele>
<time>2026-09-04T07:20:07Z</time>
</trkpt>
<trkpt lat="46.668820000" lon="-73.022020000">
<ele>0</ele>
<time>2026-09-04T07:20:08Z</time>
</trkpt>
<trkpt lat="46.669170000" lon="-73.021820000">
<ele>0</ele>
<time>2026-09-04T07:20:09Z</time>
</trkpt>
<trkpt lat="46.669300000" lon="-73.021830000">
<ele>0</ele>
<time>2026-09-04T07:20:10Z</time>
</trkpt>
<trkpt lat="46.669470000" lon="-73.021900000">
<ele>0</ele>
<time>2026-09-04T07:20:11Z</time>
</trkpt>
<trkpt lat="46.669640000" lon="-73.022000000">
<ele>0</ele>
<time>2026-09-04T07:20:12Z</time>
</trkpt>
<trkpt lat="46.669800000" lon="-73.022150000">
<ele>0</ele>
<time>2026-09-04T07:20:13Z</time>
</trkpt>
<trkpt lat="46.670240000" lon="-73.022740000">
<ele>0</ele>
<time>2026-09-04T07:20:14Z</time>
</trkpt>
<trkpt lat="46.670660000" lon="-73.023460000">
<ele>0</ele>
<time>2026-09-04T07:20:15Z</time>
</trkpt>
<trkpt lat="46.670970000" lon="-73.024100000">
<ele>0</ele>
<time>2026-09-04T07:20:16Z</time>
</trkpt>
<trkpt lat="46.671140000" lon="-73.024560000">
<ele>0</ele>
<time>2026-09-04T07:20:17Z</time>
</trkpt>
<trkpt lat="46.671370000" lon="-73.025270000">
<ele>0</ele>
<time>2026-09-04T07:20:18Z</time>
</trkpt>
<trkpt lat="46.671480000" lon="-73.025660000">
<ele>0</ele>
<time>2026-09-04T07:20:19Z</time>
</trkpt>
<trkpt lat="46.671540000" lon="-73.026020000">
<ele>0</ele>
<time>2026-09-04T07:20:20Z</time>
</trkpt>
<trkpt lat="46.671660000" lon="-73.026790000">
<ele>0</ele>
<time>2026-09-04T07:20:21Z</time>
</trkpt>
<trkpt lat="46.671730000" lon="-73.027300000">
<ele>0</ele>
<time>2026-09-04T07:20:22Z</time>
</trkpt>
<trkpt lat="46.671740000" lon="-73.027560000">
<ele>0</ele>
<time>2026-09-04T07:20:23Z</time>
</trkpt>
<trkpt lat="46.671770000" lon="-73.028570000">
<ele>0</ele>
<time>2026-09-04T07:20:24Z</time>
</trkpt>
<trkpt lat="46.671700000" lon="-73.029350000">
<ele>0</ele>
<time>2026-09-04T07:20:25Z</time>
</trkpt>
<trkpt lat="46.671580000" lon="-73.030280000">
<ele>0</ele>
<time>2026-09-04T07:20:26Z</time>
</trkpt>
<trkpt lat="46.671330000" lon="-73.031130000">
<ele>0</ele>
<time>2026-09-04T07:20:27Z</time>
</trkpt>
<trkpt lat="46.671270000" lon="-73.031650000">
<ele>0</ele>
<time>2026-09-04T07:20:28Z</time>
</trkpt>
<trkpt lat="46.671270000" lon="-73.032170000">
<ele>0</ele>
<time>2026-09-04T07:20:29Z</time>
</trkpt>
<trkpt lat="46.671310000" lon="-73.032650000">
<ele>0</ele>
<time>2026-09-04T07:20:30Z</time>
</trkpt>
<trkpt lat="46.671350000" lon="-73.033420000">
<ele>0</ele>
<time>2026-09-04T07:20:31Z</time>
</trkpt>
<trkpt lat="46.671480000" lon="-73.033940000">
<ele>0</ele>
<time>2026-09-04T07:20:32Z</time>
</trkpt>
<trkpt lat="46.671590000" lon="-73.034180000">
<ele>0</ele>
<time>2026-09-04T07:20:33Z</time>
</trkpt>
<trkpt lat="46.671650000" lon="-73.034280000">
<ele>0</ele>
<time>2026-09-04T07:20:34Z</time>
</trkpt>
<trkpt lat="46.671720000" lon="-73.034340000">
<ele>0</ele>
<time>2026-09-04T07:20:35Z</time>
</trkpt>
<trkpt lat="46.671820000" lon="-73.034420000">
<ele>0</ele>
<time>2026-09-04T07:20:36Z</time>
</trkpt>
<trkpt lat="46.671890000" lon="-73.034450000">
<ele>0</ele>
<time>2026-09-04T07:20:37Z</time>
</trkpt>
<trkpt lat="46.672060000" lon="-73.034500000">
<ele>0</ele>
<time>2026-09-04T07:20:38Z</time>
</trkpt>
<trkpt lat="46.672240000" lon="-73.034460000">
<ele>0</ele>
<time>2026-09-04T07:20:39Z</time>
</trkpt>
<trkpt lat="46.672410000" lon="-73.034370000">
<ele>0</ele>
<time>2026-09-04T07:20:40Z</time>
</trkpt>
<trkpt lat="46.672560000" lon="-73.034230000">
<ele>0</ele>
<time>2026-09-04T07:20:41Z</time>
</trkpt>
<trkpt lat="46.672680000" lon="-73.034040000">
<ele>0</ele>
<time>2026-09-04T07:20:42Z</time>
</trkpt>
<trkpt lat="46.672790000" lon="-73.033830000">
<ele>0</ele>
<time>2026-09-04T07:20:43Z</time>
</trkpt>
<trkpt lat="46.673280000" lon="-73.032730000">
<ele>0</ele>
<time>2026-09-04T07:20:44Z</time>
</trkpt>
<trkpt lat="46.673560000" lon="-73.032060000">
<ele>0</ele>
<time>2026-09-04T07:20:45Z</time>
</trkpt>
<trkpt lat="46.673730000" lon="-73.031600000">
<ele>0</ele>
<time>2026-09-04T07:20:46Z</time>
</trkpt>
<trkpt lat="46.674050000" lon="-73.030970000">
<ele>0</ele>
<time>2026-09-04T07:20:47Z</time>
</trkpt>
<trkpt lat="46.674260000" lon="-73.030640000">
<ele>0</ele>
<time>2026-09-04T07:20:48Z</time>
</trkpt>
<trkpt lat="46.674410000" lon="-73.030470000">
<ele>0</ele>
<time>2026-09-04T07:20:49Z</time>
</trkpt>
<trkpt lat="46.674530000" lon="-73.030380000">
<ele>0</ele>
<time>2026-09-04T07:20:50Z</time>
</trkpt>
<trkpt lat="46.674620000" lon="-73.030350000">
<ele>0</ele>
<time>2026-09-04T07:20:51Z</time>
</trkpt>
<trkpt lat="46.674790000" lon="-73.030320000">
<ele>0</ele>
<time>2026-09-04T07:20:52Z</time>
</trkpt>
<trkpt lat="46.674960000" lon="-73.030360000">
<ele>0</ele>
<time>2026-09-04T07:20:53Z</time>
</trkpt>
<trkpt lat="46.675090000" lon="-73.030410000">
<ele>0</ele>
<time>2026-09-04T07:20:54Z</time>
</trkpt>
<trkpt lat="46.675270000" lon="-73.030560000">
<ele>0</ele>
<time>2026-09-04T07:20:55Z</time>
</trkpt>
<trkpt lat="46.675700000" lon="-73.031060000">
<ele>0</ele>
<time>2026-09-04T07:20:56Z</time>
</trkpt>
<trkpt lat="46.676430000" lon="-73.031520000">
<ele>0</ele>
<time>2026-09-04T07:20:57Z</time>
</trkpt>
<trkpt lat="46.676900000" lon="-73.031700000">
<ele>0</ele>
<time>2026-09-04T07:20:58Z</time>
</trkpt>
<trkpt lat="46.677110000" lon="-73.031780000">
<ele>0</ele>
<time>2026-09-04T07:20:59Z</time>
</trkpt>
<trkpt lat="46.677420000" lon="-73.031860000">
<ele>0</ele>
<time>2026-09-04T07:21:00Z</time>
</trkpt>
<trkpt lat="46.678000000" lon="-73.032010000">
<ele>0</ele>
<time>2026-09-04T07:21:01Z</time>
</trkpt>
<trkpt lat="46.678300000" lon="-73.032140000">
<ele>0</ele>
<time>2026-09-04T07:21:02Z</time>
</trkpt>
<trkpt lat="46.678470000" lon="-73.032230000">
<ele>0</ele>
<time>2026-09-04T07:21:03Z</time>
</trkpt>
<trkpt lat="46.678680000" lon="-73.032370000">
<ele>0</ele>
<time>2026-09-04T07:21:04Z</time>
</trkpt>
<trkpt lat="46.678930000" lon="-73.032640000">
<ele>0</ele>
<time>2026-09-04T07:21:05Z</time>
</trkpt>
<trkpt lat="46.679040000" lon="-73.032830000">
<ele>0</ele>
<time>2026-09-04T07:21:06Z</time>
</trkpt>
<trkpt lat="46.679240000" lon="-73.033240000">
<ele>0</ele>
<time>2026-09-04T07:21:07Z</time>
</trkpt>
<trkpt lat="46.679320000" lon="-73.033500000">
<ele>0</ele>
<time>2026-09-04T07:21:08Z</time>
</trkpt>
<trkpt lat="46.679620000" lon="-73.034460000">
<ele>0</ele>
<time>2026-09-04T07:21:09Z</time>
</trkpt>
<trkpt lat="46.679900000" lon="-73.035130000">
<ele>0</ele>
<time>2026-09-04T07:21:10Z</time>
</trkpt>
<trkpt lat="46.680340000" lon="-73.036080000">
<ele>0</ele>
<time>2026-09-04T07:21:11Z</time>
</trkpt>
<trkpt lat="46.680640000" lon="-73.036930000">
<ele>0</ele>
<time>2026-09-04T07:21:12Z</time>
</trkpt>
<trkpt lat="46.680870000" lon="-73.037630000">
<ele>0</ele>
<time>2026-09-04T07:21:13Z</time>
</trkpt>
<trkpt lat="46.681340000" lon="-73.039530000">
<ele>0</ele>
<time>2026-09-04T07:21:14Z</time>
</trkpt>
<trkpt lat="46.681620000" lon="-73.040580000">
<ele>0</ele>
<time>2026-09-04T07:21:15Z</time>
</trkpt>
<trkpt lat="46.681950000" lon="-73.041770000">
<ele>0</ele>
<time>2026-09-04T07:21:16Z</time>
</trkpt>
<trkpt lat="46.682290000" lon="-73.042730000">
<ele>0</ele>
<time>2026-09-04T07:21:17Z</time>
</trkpt>
<trkpt lat="46.682380000" lon="-73.042960000">
<ele>0</ele>
<time>2026-09-04T07:21:18Z</time>
</trkpt>
<trkpt lat="46.682580000" lon="-73.043360000">
<ele>0</ele>
<time>2026-09-04T07:21:19Z</time>
</trkpt>
<trkpt lat="46.682730000" lon="-73.043540000">
<ele>0</ele>
<time>2026-09-04T07:21:20Z</time>
</trkpt>
<trkpt lat="46.682990000" lon="-73.043770000">
<ele>0</ele>
<time>2026-09-04T07:21:21Z</time>
</trkpt>
<trkpt lat="46.683190000" lon="-73.043910000">
<ele>0</ele>
<time>2026-09-04T07:21:22Z</time>
</trkpt>
<trkpt lat="46.683560000" lon="-73.043950000">
<ele>0</ele>
<time>2026-09-04T07:21:23Z</time>
</trkpt>
<trkpt lat="46.683880000" lon="-73.043970000">
<ele>0</ele>
<time>2026-09-04T07:21:24Z</time>
</trkpt>
<trkpt lat="46.684100000" lon="-73.043940000">
<ele>0</ele>
<time>2026-09-04T07:21:25Z</time>
</trkpt>
<trkpt lat="46.684270000" lon="-73.043850000">
<ele>0</ele>
<time>2026-09-04T07:21:26Z</time>
</trkpt>
<trkpt lat="46.684400000" lon="-73.043730000">
<ele>0</ele>
<time>2026-09-04T07:21:27Z</time>
</trkpt>
<trkpt lat="46.684540000" lon="-73.043580000">
<ele>0</ele>
<time>2026-09-04T07:21:28Z</time>
</trkpt>
<trkpt lat="46.684690000" lon="-73.043360000">
<ele>0</ele>
<time>2026-09-04T07:21:29Z</time>
</trkpt>
<trkpt lat="46.685020000" lon="-73.042820000">
<ele>0</ele>
<time>2026-09-04T07:21:30Z</time>
</trkpt>
<trkpt lat="46.685130000" lon="-73.042490000">
<ele>0</ele>
<time>2026-09-04T07:21:31Z</time>
</trkpt>
<trkpt lat="46.685160000" lon="-73.042330000">
<ele>0</ele>
<time>2026-09-04T07:21:32Z</time>
</trkpt>
<trkpt lat="46.685160000" lon="-73.042330000">
<ele>0</ele>
<time>2026-09-04T07:21:33Z</time>
</trkpt>
<trkpt lat="46.685180000" lon="-73.042160000">
<ele>0</ele>
<time>2026-09-04T07:21:34Z</time>
</trkpt>
<trkpt lat="46.685200000" lon="-73.041710000">
<ele>0</ele>
<time>2026-09-04T07:21:35Z</time>
</trkpt>
<trkpt lat="46.685200000" lon="-73.041310000">
<ele>0</ele>
<time>2026-09-04T07:21:36Z</time>
</trkpt>
<trkpt lat="46.685030000" lon="-73.040480000">
<ele>0</ele>
<time>2026-09-04T07:21:37Z</time>
</trkpt>
<trkpt lat="46.684840000" lon="-73.039470000">
<ele>0</ele>
<time>2026-09-04T07:21:38Z</time>
</trkpt>
<trkpt lat="46.684710000" lon="-73.038710000">
<ele>0</ele>
<time>2026-09-04T07:21:39Z</time>
</trkpt>
<trkpt lat="46.684680000" lon="-73.038450000">
<ele>0</ele>
<time>2026-09-04T07:21:40Z</time>
</trkpt>
<trkpt lat="46.684640000" lon="-73.037930000">
<ele>0</ele>
<time>2026-09-04T07:21:41Z</time>
</trkpt>
<trkpt lat="46.684630000" lon="-73.037670000">
<ele>0</ele>
<time>2026-09-04T07:21:42Z</time>
</trkpt>
<trkpt lat="46.684640000" lon="-73.037210000">
<ele>0</ele>
<time>2026-09-04T07:21:43Z</time>
</trkpt>
<trkpt lat="46.684720000" lon="-73.036630000">
<ele>0</ele>
<time>2026-09-04T07:21:44Z</time>
</trkpt>
<trkpt lat="46.684780000" lon="-73.036120000">
<ele>0</ele>
<time>2026-09-04T07:21:45Z</time>
</trkpt>
<trkpt lat="46.684840000" lon="-73.035870000">
<ele>0</ele>
<time>2026-09-04T07:21:46Z</time>
</trkpt>
<trkpt lat="46.685150000" lon="-73.034640000">
<ele>0</ele>
<time>2026-09-04T07:21:47Z</time>
</trkpt>
<trkpt lat="46.685440000" lon="-73.033470000">
<ele>0</ele>
<time>2026-09-04T07:21:48Z</time>
</trkpt>
<trkpt lat="46.685570000" lon="-73.032870000">
<ele>0</ele>
<time>2026-09-04T07:21:49Z</time>
</trkpt>
<trkpt lat="46.685710000" lon="-73.031880000">
<ele>0</ele>
<time>2026-09-04T07:21:50Z</time>
</trkpt>
<trkpt lat="46.685740000" lon="-73.031400000">
<ele>0</ele>
<time>2026-09-04T07:21:51Z</time>
</trkpt>
<trkpt lat="46.685710000" lon="-73.030570000">
<ele>0</ele>
<time>2026-09-04T07:21:52Z</time>
</trkpt>
<trkpt lat="46.685680000" lon="-73.029780000">
<ele>0</ele>
<time>2026-09-04T07:21:53Z</time>
</trkpt>
<trkpt lat="46.685670000" lon="-73.029370000">
<ele>0</ele>
<time>2026-09-04T07:21:54Z</time>
</trkpt>
<trkpt lat="46.685540000" lon="-73.028730000">
<ele>0</ele>
<time>2026-09-04T07:21:55Z</time>
</trkpt>
<trkpt lat="46.685300000" lon="-73.027740000">
<ele>0</ele>
<time>2026-09-04T07:21:56Z</time>
</trkpt>
<trkpt lat="46.685120000" lon="-73.027000000">
<ele>0</ele>
<time>2026-09-04T07:21:57Z</time>
</trkpt>
<trkpt lat="46.684590000" lon="-73.025330000">
<ele>0</ele>
<time>2026-09-04T07:21:58Z</time>
</trkpt>
<trkpt lat="46.684400000" lon="-73.024580000">
<ele>0</ele>
<time>2026-09-04T07:21:59Z</time>
</trkpt>
<trkpt lat="46.684320000" lon="-73.024090000">
<ele>0</ele>
<time>2026-09-04T07:22:00Z</time>
</trkpt>
<trkpt lat="46.684290000" lon="-73.023830000">
<ele>0</ele>
<time>2026-09-04T07:22:01Z</time>
</trkpt>
<trkpt lat="46.684280000" lon="-73.023570000">
<ele>0</ele>
<time>2026-09-04T07:22:02Z</time>
</trkpt>
<trkpt lat="46.684320000" lon="-73.023260000">
<ele>0</ele>
<time>2026-09-04T07:22:03Z</time>
</trkpt>
<trkpt lat="46.684520000" lon="-73.022590000">
<ele>0</ele>
<time>2026-09-04T07:22:04Z</time>
</trkpt>
<trkpt lat="46.684750000" lon="-73.022190000">
<ele>0</ele>
<time>2026-09-04T07:22:05Z</time>
</trkpt>
<trkpt lat="46.684950000" lon="-73.021940000">
<ele>0</ele>
<time>2026-09-04T07:22:06Z</time>
</trkpt>
<trkpt lat="46.685170000" lon="-73.021780000">
<ele>0</ele>
<time>2026-09-04T07:22:07Z</time>
</trkpt>
<trkpt lat="46.685380000" lon="-73.021710000">
<ele>0</ele>
<time>2026-09-04T07:22:08Z</time>
</trkpt>
<trkpt lat="46.685570000" lon="-73.021660000">
<ele>0</ele>
<time>2026-09-04T07:22:09Z</time>
</trkpt>
<trkpt lat="46.685890000" lon="-73.021650000">
<ele>0</ele>
<time>2026-09-04T07:22:10Z</time>
</trkpt>
<trkpt lat="46.686070000" lon="-73.021710000">
<ele>0</ele>
<time>2026-09-04T07:22:11Z</time>
</trkpt>
<trkpt lat="46.686400000" lon="-73.021880000">
<ele>0</ele>
<time>2026-09-04T07:22:12Z</time>
</trkpt>
<trkpt lat="46.686520000" lon="-73.021960000">
<ele>0</ele>
<time>2026-09-04T07:22:13Z</time>
</trkpt>
<trkpt lat="46.686830000" lon="-73.022350000">
<ele>0</ele>
<time>2026-09-04T07:22:14Z</time>
</trkpt>
<trkpt lat="46.686940000" lon="-73.022560000">
<ele>0</ele>
<time>2026-09-04T07:22:15Z</time>
</trkpt>
<trkpt lat="46.687050000" lon="-73.022790000">
<ele>0</ele>
<time>2026-09-04T07:22:16Z</time>
</trkpt>
<trkpt lat="46.687110000" lon="-73.023020000">
<ele>0</ele>
<time>2026-09-04T07:22:17Z</time>
</trkpt>
<trkpt lat="46.687240000" lon="-73.023490000">
<ele>0</ele>
<time>2026-09-04T07:22:18Z</time>
</trkpt>
<trkpt lat="46.687410000" lon="-73.024250000">
<ele>0</ele>
<time>2026-09-04T07:22:19Z</time>
</trkpt>
<trkpt lat="46.687930000" lon="-73.026770000">
<ele>0</ele>
<time>2026-09-04T07:22:20Z</time>
</trkpt>
<trkpt lat="46.688280000" lon="-73.028530000">
<ele>0</ele>
<time>2026-09-04T07:22:21Z</time>
</trkpt>
<trkpt lat="46.688580000" lon="-73.030130000">
<ele>0</ele>
<time>2026-09-04T07:22:22Z</time>
</trkpt>
<trkpt lat="46.688630000" lon="-73.031020000">
<ele>0</ele>
<time>2026-09-04T07:22:23Z</time>
</trkpt>
<trkpt lat="46.688600000" lon="-73.031720000">
<ele>0</ele>
<time>2026-09-04T07:22:24Z</time>
</trkpt>
<trkpt lat="46.688620000" lon="-73.032400000">
<ele>0</ele>
<time>2026-09-04T07:22:25Z</time>
</trkpt>
<trkpt lat="46.688650000" lon="-73.032650000">
<ele>0</ele>
<time>2026-09-04T07:22:26Z</time>
</trkpt>
<trkpt lat="46.688830000" lon="-73.033940000">
<ele>0</ele>
<time>2026-09-04T07:22:27Z</time>
</trkpt>
<trkpt lat="46.689040000" lon="-73.035420000">
<ele>0</ele>
<time>2026-09-04T07:22:28Z</time>
</trkpt>
<trkpt lat="46.689080000" lon="-73.036000000">
<ele>0</ele>
<time>2026-09-04T07:22:29Z</time>
</trkpt>
<trkpt lat="46.689140000" lon="-73.037050000">
<ele>0</ele>
<time>2026-09-04T07:22:30Z</time>
</trkpt>
<trkpt lat="46.689240000" lon="-73.039140000">
<ele>0</ele>
<time>2026-09-04T07:22:31Z</time>
</trkpt>
<trkpt lat="46.689410000" lon="-73.043060000">
<ele>0</ele>
<time>2026-09-04T07:22:32Z</time>
</trkpt>
<trkpt lat="46.689590000" lon="-73.045360000">
<ele>0</ele>
<time>2026-09-04T07:22:33Z</time>
</trkpt>
<trkpt lat="46.689610000" lon="-73.047580000">
<ele>0</ele>
<time>2026-09-04T07:22:34Z</time>
</trkpt>
<trkpt lat="46.689640000" lon="-73.048030000">
<ele>0</ele>
<time>2026-09-04T07:22:35Z</time>
</trkpt>
<trkpt lat="46.689690000" lon="-73.048270000">
<ele>0</ele>
<time>2026-09-04T07:22:36Z</time>
</trkpt>
<trkpt lat="46.689760000" lon="-73.048520000">
<ele>0</ele>
<time>2026-09-04T07:22:37Z</time>
</trkpt>
<trkpt lat="46.689880000" lon="-73.048720000">
<ele>0</ele>
<time>2026-09-04T07:22:38Z</time>
</trkpt>
<trkpt lat="46.690010000" lon="-73.048960000">
<ele>0</ele>
<time>2026-09-04T07:22:39Z</time>
</trkpt>
<trkpt lat="46.690260000" lon="-73.049200000">
<ele>0</ele>
<time>2026-09-04T07:22:40Z</time>
</trkpt>
<trkpt lat="46.690450000" lon="-73.049310000">
<ele>0</ele>
<time>2026-09-04T07:22:41Z</time>
</trkpt>
<trkpt lat="46.690950000" lon="-73.049640000">
<ele>0</ele>
<time>2026-09-04T07:22:42Z</time>
</trkpt>
<trkpt lat="46.691100000" lon="-73.049760000">
<ele>0</ele>
<time>2026-09-04T07:22:43Z</time>
</trkpt>
<trkpt lat="46.691260000" lon="-73.049940000">
<ele>0</ele>
<time>2026-09-04T07:22:44Z</time>
</trkpt>
<trkpt lat="46.691360000" lon="-73.050080000">
<ele>0</ele>
<time>2026-09-04T07:22:45Z</time>
</trkpt>
<trkpt lat="46.691470000" lon="-73.050330000">
<ele>0</ele>
<time>2026-09-04T07:22:46Z</time>
</trkpt>
<trkpt lat="46.691540000" lon="-73.050570000">
<ele>0</ele>
<time>2026-09-04T07:22:47Z</time>
</trkpt>
<trkpt lat="46.691710000" lon="-73.051310000">
<ele>0</ele>
<time>2026-09-04T07:22:48Z</time>
</trkpt>
<trkpt lat="46.691880000" lon="-73.052060000">
<ele>0</ele>
<time>2026-09-04T07:22:49Z</time>
</trkpt>
<trkpt lat="46.692030000" lon="-73.052690000">
<ele>0</ele>
<time>2026-09-04T07:22:50Z</time>
</trkpt>
<trkpt lat="46.692180000" lon="-73.053010000">
<ele>0</ele>
<time>2026-09-04T07:22:51Z</time>
</trkpt>
<trkpt lat="46.692280000" lon="-73.053210000">
<ele>0</ele>
<time>2026-09-04T07:22:52Z</time>
</trkpt>
<trkpt lat="46.692420000" lon="-73.053400000">
<ele>0</ele>
<time>2026-09-04T07:22:53Z</time>
</trkpt>
<trkpt lat="46.692570000" lon="-73.053510000">
<ele>0</ele>
<time>2026-09-04T07:22:54Z</time>
</trkpt>
<trkpt lat="46.692740000" lon="-73.053610000">
<ele>0</ele>
<time>2026-09-04T07:22:55Z</time>
</trkpt>
<trkpt lat="46.692810000" lon="-73.053650000">
<ele>0</ele>
<time>2026-09-04T07:22:56Z</time>
</trkpt>
<trkpt lat="46.692920000" lon="-73.053670000">
<ele>0</ele>
<time>2026-09-04T07:22:57Z</time>
</trkpt>
<trkpt lat="46.693240000" lon="-73.053700000">
<ele>0</ele>
<time>2026-09-04T07:22:58Z</time>
</trkpt>
<trkpt lat="46.693620000" lon="-73.053570000">
<ele>0</ele>
<time>2026-09-04T07:22:59Z</time>
</trkpt>
<trkpt lat="46.693720000" lon="-73.053530000">
<ele>0</ele>
<time>2026-09-04T07:23:00Z</time>
</trkpt>
<trkpt lat="46.693790000" lon="-73.053470000">
<ele>0</ele>
<time>2026-09-04T07:23:01Z</time>
</trkpt>
<trkpt lat="46.694000000" lon="-73.053270000">
<ele>0</ele>
<time>2026-09-04T07:23:02Z</time>
</trkpt>
<trkpt lat="46.694190000" lon="-73.053080000">
<ele>0</ele>
<time>2026-09-04T07:23:03Z</time>
</trkpt>
<trkpt lat="46.694300000" lon="-73.052880000">
<ele>0</ele>
<time>2026-09-04T07:23:04Z</time>
</trkpt>
<trkpt lat="46.694450000" lon="-73.052310000">
<ele>0</ele>
<time>2026-09-04T07:23:05Z</time>
</trkpt>
<trkpt lat="46.694520000" lon="-73.051940000">
<ele>0</ele>
<time>2026-09-04T07:23:06Z</time>
</trkpt>
<trkpt lat="46.694540000" lon="-73.051540000">
<ele>0</ele>
<time>2026-09-04T07:23:07Z</time>
</trkpt>
<trkpt lat="46.694580000" lon="-73.051020000">
<ele>0</ele>
<time>2026-09-04T07:23:08Z</time>
</trkpt>
<trkpt lat="46.694640000" lon="-73.050500000">
<ele>0</ele>
<time>2026-09-04T07:23:09Z</time>
</trkpt>
<trkpt lat="46.694810000" lon="-73.049220000">
<ele>0</ele>
<time>2026-09-04T07:23:10Z</time>
</trkpt>
<trkpt lat="46.694950000" lon="-73.048460000">
<ele>0</ele>
<time>2026-09-04T07:23:11Z</time>
</trkpt>
<trkpt lat="46.695080000" lon="-73.047420000">
<ele>0</ele>
<time>2026-09-04T07:23:12Z</time>
</trkpt>
<trkpt lat="46.695220000" lon="-73.046560000">
<ele>0</ele>
<time>2026-09-04T07:23:13Z</time>
</trkpt>
<trkpt lat="46.695390000" lon="-73.044580000">
<ele>0</ele>
<time>2026-09-04T07:23:14Z</time>
</trkpt>
<trkpt lat="46.695480000" lon="-73.043540000">
<ele>0</ele>
<time>2026-09-04T07:23:15Z</time>
</trkpt>
<trkpt lat="46.695580000" lon="-73.042770000">
<ele>0</ele>
<time>2026-09-04T07:23:16Z</time>
</trkpt>
<trkpt lat="46.695710000" lon="-73.041890000">
<ele>0</ele>
<time>2026-09-04T07:23:17Z</time>
</trkpt>
<trkpt lat="46.695780000" lon="-73.040960000">
<ele>0</ele>
<time>2026-09-04T07:23:18Z</time>
</trkpt>
<trkpt lat="46.695790000" lon="-73.040700000">
<ele>0</ele>
<time>2026-09-04T07:23:19Z</time>
</trkpt>
<trkpt lat="46.695780000" lon="-73.039910000">
<ele>0</ele>
<time>2026-09-04T07:23:20Z</time>
</trkpt>
<trkpt lat="46.695780000" lon="-73.039760000">
<ele>0</ele>
<time>2026-09-04T07:23:21Z</time>
</trkpt>
<trkpt lat="46.695880000" lon="-73.039230000">
<ele>0</ele>
<time>2026-09-04T07:23:22Z</time>
</trkpt>
<trkpt lat="46.695990000" lon="-73.038920000">
<ele>0</ele>
<time>2026-09-04T07:23:23Z</time>
</trkpt>
<trkpt lat="46.696100000" lon="-73.038710000">
<ele>0</ele>
<time>2026-09-04T07:23:24Z</time>
</trkpt>
<trkpt lat="46.696260000" lon="-73.038460000">
<ele>0</ele>
<time>2026-09-04T07:23:25Z</time>
</trkpt>
<trkpt lat="46.696810000" lon="-73.037910000">
<ele>0</ele>
<time>2026-09-04T07:23:26Z</time>
</trkpt>
<trkpt lat="46.697050000" lon="-73.037620000">
<ele>0</ele>
<time>2026-09-04T07:23:27Z</time>
</trkpt>
<trkpt lat="46.697350000" lon="-73.037130000">
<ele>0</ele>
<time>2026-09-04T07:23:28Z</time>
</trkpt>
<trkpt lat="46.697540000" lon="-73.036710000">
<ele>0</ele>
<time>2026-09-04T07:23:29Z</time>
</trkpt>
<trkpt lat="46.697650000" lon="-73.036260000">
<ele>0</ele>
<time>2026-09-04T07:23:30Z</time>
</trkpt>
<trkpt lat="46.697780000" lon="-73.035500000">
<ele>0</ele>
<time>2026-09-04T07:23:31Z</time>
</trkpt>
<trkpt lat="46.697810000" lon="-73.035240000">
<ele>0</ele>
<time>2026-09-04T07:23:32Z</time>
</trkpt>
<trkpt lat="46.697930000" lon="-73.034200000">
<ele>0</ele>
<time>2026-09-04T07:23:33Z</time>
</trkpt>
<trkpt lat="46.698210000" lon="-73.031860000">
<ele>0</ele>
<time>2026-09-04T07:23:34Z</time>
</trkpt>
<trkpt lat="46.698260000" lon="-73.030940000">
<ele>0</ele>
<time>2026-09-04T07:23:35Z</time>
</trkpt>
<trkpt lat="46.698500000" lon="-73.029840000">
<ele>0</ele>
<time>2026-09-04T07:23:36Z</time>
</trkpt>
<trkpt lat="46.698590000" lon="-73.029480000">
<ele>0</ele>
<time>2026-09-04T07:23:37Z</time>
</trkpt>
<trkpt lat="46.698840000" lon="-73.028920000">
<ele>0</ele>
<time>2026-09-04T07:23:38Z</time>
</trkpt>
<trkpt lat="46.698960000" lon="-73.028730000">
<ele>0</ele>
<time>2026-09-04T07:23:39Z</time>
</trkpt>
<trkpt lat="46.699240000" lon="-73.028380000">
<ele>0</ele>
<time>2026-09-04T07:23:40Z</time>
</trkpt>
<trkpt lat="46.699540000" lon="-73.028140000">
<ele>0</ele>
<time>2026-09-04T07:23:41Z</time>
</trkpt>
<trkpt lat="46.699720000" lon="-73.028070000">
<ele>0</ele>
<time>2026-09-04T07:23:42Z</time>
</trkpt>
<trkpt lat="46.699900000" lon="-73.028050000">
<ele>0</ele>
<time>2026-09-04T07:23:43Z</time>
</trkpt>
<trkpt lat="46.700080000" lon="-73.028070000">
<ele>0</ele>
<time>2026-09-04T07:23:44Z</time>
</trkpt>
<trkpt lat="46.700260000" lon="-73.028110000">
<ele>0</ele>
<time>2026-09-04T07:23:45Z</time>
</trkpt>
<trkpt lat="46.700500000" lon="-73.028200000">
<ele>0</ele>
<time>2026-09-04T07:23:46Z</time>
</trkpt>
<trkpt lat="46.700890000" lon="-73.028580000">
<ele>0</ele>
<time>2026-09-04T07:23:47Z</time>
</trkpt>
<trkpt lat="46.701430000" lon="-73.029280000">
<ele>0</ele>
<time>2026-09-04T07:23:48Z</time>
</trkpt>
<trkpt lat="46.701580000" lon="-73.029480000">
<ele>0</ele>
<time>2026-09-04T07:23:49Z</time>
</trkpt>
<trkpt lat="46.701850000" lon="-73.029770000">
<ele>0</ele>
<time>2026-09-04T07:23:50Z</time>
</trkpt>
<trkpt lat="46.702450000" lon="-73.030350000">
<ele>0</ele>
<time>2026-09-04T07:23:51Z</time>
</trkpt>
<trkpt lat="46.702710000" lon="-73.030700000">
<ele>0</ele>
<time>2026-09-04T07:23:52Z</time>
</trkpt>
<trkpt lat="46.702990000" lon="-73.031380000">
<ele>0</ele>
<time>2026-09-04T07:23:53Z</time>
</trkpt>
<trkpt lat="46.703090000" lon="-73.031600000">
<ele>0</ele>
<time>2026-09-04T07:23:54Z</time>
</trkpt>
<trkpt lat="46.703220000" lon="-73.031800000">
<ele>0</ele>
<time>2026-09-04T07:23:55Z</time>
</trkpt>
<trkpt lat="46.703690000" lon="-73.032150000">
<ele>0</ele>
<time>2026-09-04T07:23:56Z</time>
</trkpt>
<trkpt lat="46.704200000" lon="-73.032390000">
<ele>0</ele>
<time>2026-09-04T07:23:57Z</time>
</trkpt>
<trkpt lat="46.704510000" lon="-73.032510000">
<ele>0</ele>
<time>2026-09-04T07:23:58Z</time>
</trkpt>
<trkpt lat="46.704730000" lon="-73.032550000">
<ele>0</ele>
<time>2026-09-04T07:23:59Z</time>
</trkpt>
<trkpt lat="46.705260000" lon="-73.032670000">
<ele>0</ele>
<time>2026-09-04T07:24:00Z</time>
</trkpt>
<trkpt lat="46.705700000" lon="-73.032730000">
<ele>0</ele>
<time>2026-09-04T07:24:01Z</time>
</trkpt>
<trkpt lat="46.705980000" lon="-73.032740000">
<ele>0</ele>
<time>2026-09-04T07:24:02Z</time>
</trkpt>
<trkpt lat="46.706980000" lon="-73.032740000">
<ele>0</ele>
<time>2026-09-04T07:24:03Z</time>
</trkpt>
<trkpt lat="46.707420000" lon="-73.032780000">
<ele>0</ele>
<time>2026-09-04T07:24:04Z</time>
</trkpt>
<trkpt lat="46.707650000" lon="-73.032880000">
<ele>0</ele>
<time>2026-09-04T07:24:05Z</time>
</trkpt>
<trkpt lat="46.707870000" lon="-73.033050000">
<ele>0</ele>
<time>2026-09-04T07:24:06Z</time>
</trkpt>
<trkpt lat="46.708050000" lon="-73.033270000">
<ele>0</ele>
<time>2026-09-04T07:24:07Z</time>
</trkpt>
<trkpt lat="46.708450000" lon="-73.033790000">
<ele>0</ele>
<time>2026-09-04T07:24:08Z</time>
</trkpt>
<trkpt lat="46.708480000" lon="-73.033830000">
<ele>0</ele>
<time>2026-09-04T07:24:09Z</time>
</trkpt>
<trkpt lat="46.708480000" lon="-73.033830000">
<ele>0</ele>
<time>2026-09-04T07:24:10Z</time>
</trkpt>
<trkpt lat="46.709450000" lon="-73.035300000">
<ele>0</ele>
<time>2026-09-04T07:24:11Z</time>
</trkpt>
<trkpt lat="46.709830000" lon="-73.035860000">
<ele>0</ele>
<time>2026-09-04T07:24:12Z</time>
</trkpt>
<trkpt lat="46.710160000" lon="-73.036330000">
<ele>0</ele>
<time>2026-09-04T07:24:13Z</time>
</trkpt>
<trkpt lat="46.710370000" lon="-73.036550000">
<ele>0</ele>
<time>2026-09-04T07:24:14Z</time>
</trkpt>
<trkpt lat="46.710820000" lon="-73.036980000">
<ele>0</ele>
<time>2026-09-04T07:24:15Z</time>
</trkpt>
<trkpt lat="46.711270000" lon="-73.037400000">
<ele>0</ele>
<time>2026-09-04T07:24:16Z</time>
</trkpt>
<trkpt lat="46.711740000" lon="-73.037810000">
<ele>0</ele>
<time>2026-09-04T07:24:17Z</time>
</trkpt>
<trkpt lat="46.712190000" lon="-73.038230000">
<ele>0</ele>
<time>2026-09-04T07:24:18Z</time>
</trkpt>
<trkpt lat="46.712320000" lon="-73.038410000">
<ele>0</ele>
<time>2026-09-04T07:24:19Z</time>
</trkpt>
<trkpt lat="46.712570000" lon="-73.038790000">
<ele>0</ele>
<time>2026-09-04T07:24:20Z</time>
</trkpt>
<trkpt lat="46.712670000" lon="-73.039010000">
<ele>0</ele>
<time>2026-09-04T07:24:21Z</time>
</trkpt>
<trkpt lat="46.712750000" lon="-73.039240000">
<ele>0</ele>
<time>2026-09-04T07:24:22Z</time>
</trkpt>
<trkpt lat="46.712800000" lon="-73.039550000">
<ele>0</ele>
<time>2026-09-04T07:24:23Z</time>
</trkpt>
<trkpt lat="46.712820000" lon="-73.040010000">
<ele>0</ele>
<time>2026-09-04T07:24:24Z</time>
</trkpt>
<trkpt lat="46.712760000" lon="-73.040790000">
<ele>0</ele>
<time>2026-09-04T07:24:25Z</time>
</trkpt>
<trkpt lat="46.712700000" lon="-73.041040000">
<ele>0</ele>
<time>2026-09-04T07:24:26Z</time>
</trkpt>
<trkpt lat="46.712590000" lon="-73.041360000">
<ele>0</ele>
<time>2026-09-04T07:24:27Z</time>
</trkpt>
<trkpt lat="46.712140000" lon="-73.042060000">
<ele>0</ele>
<time>2026-09-04T07:24:28Z</time>
</trkpt>
<trkpt lat="46.711980000" lon="-73.042340000">
<ele>0</ele>
<time>2026-09-04T07:24:29Z</time>
</trkpt>
<trkpt lat="46.711850000" lon="-73.042680000">
<ele>0</ele>
<time>2026-09-04T07:24:30Z</time>
</trkpt>
<trkpt lat="46.711800000" lon="-73.042960000">
<ele>0</ele>
<time>2026-09-04T07:24:31Z</time>
</trkpt>
<trkpt lat="46.711770000" lon="-73.043220000">
<ele>0</ele>
<time>2026-09-04T07:24:32Z</time>
</trkpt>
<trkpt lat="46.711760000" lon="-73.043480000">
<ele>0</ele>
<time>2026-09-04T07:24:33Z</time>
</trkpt>
<trkpt lat="46.711770000" lon="-73.043740000">
<ele>0</ele>
<time>2026-09-04T07:24:34Z</time>
</trkpt>
<trkpt lat="46.711880000" lon="-73.044240000">
<ele>0</ele>
<time>2026-09-04T07:24:35Z</time>
</trkpt>
<trkpt lat="46.711970000" lon="-73.044520000">
<ele>0</ele>
<time>2026-09-04T07:24:36Z</time>
</trkpt>
<trkpt lat="46.712210000" lon="-73.044850000">
<ele>0</ele>
<time>2026-09-04T07:24:37Z</time>
</trkpt>
<trkpt lat="46.712570000" lon="-73.045240000">
<ele>0</ele>
<time>2026-09-04T07:24:38Z</time>
</trkpt>
<trkpt lat="46.712770000" lon="-73.045510000">
<ele>0</ele>
<time>2026-09-04T07:24:39Z</time>
</trkpt>
<trkpt lat="46.712980000" lon="-73.045920000">
<ele>0</ele>
<time>2026-09-04T07:24:40Z</time>
</trkpt>
<trkpt lat="46.713140000" lon="-73.046500000">
<ele>0</ele>
<time>2026-09-04T07:24:41Z</time>
</trkpt>
<trkpt lat="46.713170000" lon="-73.046920000">
<ele>0</ele>
<time>2026-09-04T07:24:42Z</time>
</trkpt>
<trkpt lat="46.713230000" lon="-73.047520000">
<ele>0</ele>
<time>2026-09-04T07:24:43Z</time>
</trkpt>
<trkpt lat="46.713260000" lon="-73.048360000">
<ele>0</ele>
<time>2026-09-04T07:24:44Z</time>
</trkpt>
<trkpt lat="46.713280000" lon="-73.049290000">
<ele>0</ele>
<time>2026-09-04T07:24:45Z</time>
</trkpt>
<trkpt lat="46.713290000" lon="-73.049550000">
<ele>0</ele>
<time>2026-09-04T07:24:46Z</time>
</trkpt>
<trkpt lat="46.713400000" lon="-73.050880000">
<ele>0</ele>
<time>2026-09-04T07:24:47Z</time>
</trkpt>
<trkpt lat="46.713460000" lon="-73.051360000">
<ele>0</ele>
<time>2026-09-04T07:24:48Z</time>
</trkpt>
<trkpt lat="46.713500000" lon="-73.051620000">
<ele>0</ele>
<time>2026-09-04T07:24:49Z</time>
</trkpt>
<trkpt lat="46.713630000" lon="-73.052390000">
<ele>0</ele>
<time>2026-09-04T07:24:50Z</time>
</trkpt>
<trkpt lat="46.713800000" lon="-73.053130000">
<ele>0</ele>
<time>2026-09-04T07:24:51Z</time>
</trkpt>
<trkpt lat="46.713980000" lon="-73.053870000">
<ele>0</ele>
<time>2026-09-04T07:24:52Z</time>
</trkpt>
<trkpt lat="46.714300000" lon="-73.054820000">
<ele>0</ele>
<time>2026-09-04T07:24:53Z</time>
</trkpt>
<trkpt lat="46.714590000" lon="-73.055750000">
<ele>0</ele>
<time>2026-09-04T07:24:54Z</time>
</trkpt>
<trkpt lat="46.714790000" lon="-73.056240000">
<ele>0</ele>
<time>2026-09-04T07:24:55Z</time>
</trkpt>
<trkpt lat="46.715170000" lon="-73.057100000">
<ele>0</ele>
<time>2026-09-04T07:24:56Z</time>
</trkpt>
<trkpt lat="46.715400000" lon="-73.057640000">
<ele>0</ele>
<time>2026-09-04T07:24:57Z</time>
</trkpt>
<trkpt lat="46.715480000" lon="-73.058220000">
<ele>0</ele>
<time>2026-09-04T07:24:58Z</time>
</trkpt>
<trkpt lat="46.715470000" lon="-73.058500000">
<ele>0</ele>
<time>2026-09-04T07:24:59Z</time>
</trkpt>
<trkpt lat="46.715400000" lon="-73.059080000">
<ele>0</ele>
<time>2026-09-04T07:25:00Z</time>
</trkpt>
<trkpt lat="46.715370000" lon="-73.059360000">
<ele>0</ele>
<time>2026-09-04T07:25:01Z</time>
</trkpt>
<trkpt lat="46.715390000" lon="-73.059860000">
<ele>0</ele>
<time>2026-09-04T07:25:02Z</time>
</trkpt>
<trkpt lat="46.715420000" lon="-73.060120000">
<ele>0</ele>
<time>2026-09-04T07:25:03Z</time>
</trkpt>
<trkpt lat="46.715470000" lon="-73.060370000">
<ele>0</ele>
<time>2026-09-04T07:25:04Z</time>
</trkpt>
<trkpt lat="46.715710000" lon="-73.061000000">
<ele>0</ele>
<time>2026-09-04T07:25:05Z</time>
</trkpt>
<trkpt lat="46.715880000" lon="-73.061230000">
<ele>0</ele>
<time>2026-09-04T07:25:06Z</time>
</trkpt>
<trkpt lat="46.716020000" lon="-73.061390000">
<ele>0</ele>
<time>2026-09-04T07:25:07Z</time>
</trkpt>
<trkpt lat="46.716240000" lon="-73.061590000">
<ele>0</ele>
<time>2026-09-04T07:25:08Z</time>
</trkpt>
<trkpt lat="46.716500000" lon="-73.061740000">
<ele>0</ele>
<time>2026-09-04T07:25:09Z</time>
</trkpt>
<trkpt lat="46.716670000" lon="-73.061800000">
<ele>0</ele>
<time>2026-09-04T07:25:10Z</time>
</trkpt>
<trkpt lat="46.716880000" lon="-73.061850000">
<ele>0</ele>
<time>2026-09-04T07:25:11Z</time>
</trkpt>
<trkpt lat="46.717080000" lon="-73.061860000">
<ele>0</ele>
<time>2026-09-04T07:25:12Z</time>
</trkpt>
<trkpt lat="46.717230000" lon="-73.061820000">
<ele>0</ele>
<time>2026-09-04T07:25:13Z</time>
</trkpt>
<trkpt lat="46.717390000" lon="-73.061750000">
<ele>0</ele>
<time>2026-09-04T07:25:14Z</time>
</trkpt>
<trkpt lat="46.717720000" lon="-73.061570000">
<ele>0</ele>
<time>2026-09-04T07:25:15Z</time>
</trkpt>
<trkpt lat="46.717870000" lon="-73.061450000">
<ele>0</ele>
<time>2026-09-04T07:25:16Z</time>
</trkpt>
<trkpt lat="46.718020000" lon="-73.061300000">
<ele>0</ele>
<time>2026-09-04T07:25:17Z</time>
</trkpt>
<trkpt lat="46.718260000" lon="-73.060910000">
<ele>0</ele>
<time>2026-09-04T07:25:18Z</time>
</trkpt>
<trkpt lat="46.718370000" lon="-73.060700000">
<ele>0</ele>
<time>2026-09-04T07:25:19Z</time>
</trkpt>
<trkpt lat="46.718640000" lon="-73.060020000">
<ele>0</ele>
<time>2026-09-04T07:25:20Z</time>
</trkpt>
<trkpt lat="46.718900000" lon="-73.059330000">
<ele>0</ele>
<time>2026-09-04T07:25:21Z</time>
</trkpt>
<trkpt lat="46.719090000" lon="-73.058870000">
<ele>0</ele>
<time>2026-09-04T07:25:22Z</time>
</trkpt>
<trkpt lat="46.719320000" lon="-73.058480000">
<ele>0</ele>
<time>2026-09-04T07:25:23Z</time>
</trkpt>
<trkpt lat="46.719560000" lon="-73.058210000">
<ele>0</ele>
<time>2026-09-04T07:25:24Z</time>
</trkpt>
<trkpt lat="46.719920000" lon="-73.057910000">
<ele>0</ele>
<time>2026-09-04T07:25:25Z</time>
</trkpt>
<trkpt lat="46.720100000" lon="-73.057750000">
<ele>0</ele>
<time>2026-09-04T07:25:26Z</time>
</trkpt>
<trkpt lat="46.720360000" lon="-73.057450000">
<ele>0</ele>
<time>2026-09-04T07:25:27Z</time>
</trkpt>
<trkpt lat="46.720480000" lon="-73.057260000">
<ele>0</ele>
<time>2026-09-04T07:25:28Z</time>
</trkpt>
<trkpt lat="46.720690000" lon="-73.056840000">
<ele>0</ele>
<time>2026-09-04T07:25:29Z</time>
</trkpt>
<trkpt lat="46.720770000" lon="-73.056600000">
<ele>0</ele>
<time>2026-09-04T07:25:30Z</time>
</trkpt>
<trkpt lat="46.720880000" lon="-73.056270000">
<ele>0</ele>
<time>2026-09-04T07:25:31Z</time>
</trkpt>
<trkpt lat="46.720920000" lon="-73.056020000">
<ele>0</ele>
<time>2026-09-04T07:25:32Z</time>
</trkpt>
<trkpt lat="46.721000000" lon="-73.055510000">
<ele>0</ele>
<time>2026-09-04T07:25:33Z</time>
</trkpt>
<trkpt lat="46.721020000" lon="-73.055220000">
<ele>0</ele>
<time>2026-09-04T07:25:34Z</time>
</trkpt>
<trkpt lat="46.721000000" lon="-73.054810000">
<ele>0</ele>
<time>2026-09-04T07:25:35Z</time>
</trkpt>
<trkpt lat="46.721000000" lon="-73.054670000">
<ele>0</ele>
<time>2026-09-04T07:25:36Z</time>
</trkpt>
<trkpt lat="46.720920000" lon="-73.054310000">
<ele>0</ele>
<time>2026-09-04T07:25:37Z</time>
</trkpt>
<trkpt lat="46.720860000" lon="-73.054060000">
<ele>0</ele>
<time>2026-09-04T07:25:38Z</time>
</trkpt>
<trkpt lat="46.720770000" lon="-73.053600000">
<ele>0</ele>
<time>2026-09-04T07:25:39Z</time>
</trkpt>
<trkpt lat="46.720690000" lon="-73.053040000">
<ele>0</ele>
<time>2026-09-04T07:25:40Z</time>
</trkpt>
<trkpt lat="46.720680000" lon="-73.052250000">
<ele>0</ele>
<time>2026-09-04T07:25:41Z</time>
</trkpt>
<trkpt lat="46.720670000" lon="-73.051200000">
<ele>0</ele>
<time>2026-09-04T07:25:42Z</time>
</trkpt>
<trkpt lat="46.720710000" lon="-73.050950000">
<ele>0</ele>
<time>2026-09-04T07:25:43Z</time>
</trkpt>
<trkpt lat="46.720880000" lon="-73.050250000">
<ele>0</ele>
<time>2026-09-04T07:25:44Z</time>
</trkpt>
<trkpt lat="46.721010000" lon="-73.050010000">
<ele>0</ele>
<time>2026-09-04T07:25:45Z</time>
</trkpt>
<trkpt lat="46.721160000" lon="-73.049840000">
<ele>0</ele>
<time>2026-09-04T07:25:46Z</time>
</trkpt>
<trkpt lat="46.721470000" lon="-73.049620000">
<ele>0</ele>
<time>2026-09-04T07:25:47Z</time>
</trkpt>
<trkpt lat="46.721760000" lon="-73.049510000">
<ele>0</ele>
<time>2026-09-04T07:25:48Z</time>
</trkpt>
<trkpt lat="46.722000000" lon="-73.049520000">
<ele>0</ele>
<time>2026-09-04T07:25:49Z</time>
</trkpt>
<trkpt lat="46.722280000" lon="-73.049630000">
<ele>0</ele>
<time>2026-09-04T07:25:50Z</time>
</trkpt>
<trkpt lat="46.722350000" lon="-73.049680000">
<ele>0</ele>
<time>2026-09-04T07:25:51Z</time>
</trkpt>
<trkpt lat="46.722570000" lon="-73.049860000">
<ele>0</ele>
<time>2026-09-04T07:25:52Z</time>
</trkpt>
<trkpt lat="46.722680000" lon="-73.049950000">
<ele>0</ele>
<time>2026-09-04T07:25:53Z</time>
</trkpt>
<trkpt lat="46.722850000" lon="-73.050180000">
<ele>0</ele>
<time>2026-09-04T07:25:54Z</time>
</trkpt>
<trkpt lat="46.722960000" lon="-73.050560000">
<ele>0</ele>
<time>2026-09-04T07:25:55Z</time>
</trkpt>
<trkpt lat="46.723170000" lon="-73.051570000">
<ele>0</ele>
<time>2026-09-04T07:25:56Z</time>
</trkpt>
<trkpt lat="46.723370000" lon="-73.052580000">
<ele>0</ele>
<time>2026-09-04T07:25:57Z</time>
</trkpt>
<trkpt lat="46.723500000" lon="-73.053230000">
<ele>0</ele>
<time>2026-09-04T07:25:58Z</time>
</trkpt>
<trkpt lat="46.723610000" lon="-73.053950000">
<ele>0</ele>
<time>2026-09-04T07:25:59Z</time>
</trkpt>
<trkpt lat="46.723870000" lon="-73.054810000">
<ele>0</ele>
<time>2026-09-04T07:26:00Z</time>
</trkpt>
<trkpt lat="46.724080000" lon="-73.055540000">
<ele>0</ele>
<time>2026-09-04T07:26:01Z</time>
</trkpt>
<trkpt lat="46.724160000" lon="-73.055840000">
<ele>0</ele>
<time>2026-09-04T07:26:02Z</time>
</trkpt>
<trkpt lat="46.724330000" lon="-73.056200000">
<ele>0</ele>
<time>2026-09-04T07:26:03Z</time>
</trkpt>
<trkpt lat="46.724590000" lon="-73.056480000">
<ele>0</ele>
<time>2026-09-04T07:26:04Z</time>
</trkpt>
<trkpt lat="46.724800000" lon="-73.056620000">
<ele>0</ele>
<time>2026-09-04T07:26:05Z</time>
</trkpt>
<trkpt lat="46.724970000" lon="-73.056700000">
<ele>0</ele>
<time>2026-09-04T07:26:06Z</time>
</trkpt>
<trkpt lat="46.725100000" lon="-73.056750000">
<ele>0</ele>
<time>2026-09-04T07:26:07Z</time>
</trkpt>
<trkpt lat="46.725150000" lon="-73.056740000">
<ele>0</ele>
<time>2026-09-04T07:26:08Z</time>
</trkpt>
<trkpt lat="46.725390000" lon="-73.056730000">
<ele>0</ele>
<time>2026-09-04T07:26:09Z</time>
</trkpt>
<trkpt lat="46.725590000" lon="-73.056700000">
<ele>0</ele>
<time>2026-09-04T07:26:10Z</time>
</trkpt>
<trkpt lat="46.726020000" lon="-73.056490000">
<ele>0</ele>
<time>2026-09-04T07:26:11Z</time>
</trkpt>
<trkpt lat="46.726190000" lon="-73.056460000">
<ele>0</ele>
<time>2026-09-04T07:26:12Z</time>
</trkpt>
<trkpt lat="46.726290000" lon="-73.056460000">
<ele>0</ele>
<time>2026-09-04T07:26:13Z</time>
</trkpt>
<trkpt lat="46.726520000" lon="-73.056500000">
<ele>0</ele>
<time>2026-09-04T07:26:14Z</time>
</trkpt>
<trkpt lat="46.726720000" lon="-73.056570000">
<ele>0</ele>
<time>2026-09-04T07:26:15Z</time>
</trkpt>
<trkpt lat="46.727220000" lon="-73.056900000">
<ele>0</ele>
<time>2026-09-04T07:26:16Z</time>
</trkpt>
<trkpt lat="46.727700000" lon="-73.057260000">
<ele>0</ele>
<time>2026-09-04T07:26:17Z</time>
</trkpt>
<trkpt lat="46.728350000" lon="-73.057700000">
<ele>0</ele>
<time>2026-09-04T07:26:18Z</time>
</trkpt>
<trkpt lat="46.728630000" lon="-73.057910000">
<ele>0</ele>
<time>2026-09-04T07:26:19Z</time>
</trkpt>
<trkpt lat="46.728840000" lon="-73.058030000">
<ele>0</ele>
<time>2026-09-04T07:26:20Z</time>
</trkpt>
<trkpt lat="46.729270000" lon="-73.058200000">
<ele>0</ele>
<time>2026-09-04T07:26:21Z</time>
</trkpt>
<trkpt lat="46.729470000" lon="-73.058260000">
<ele>0</ele>
<time>2026-09-04T07:26:22Z</time>
</trkpt>
<trkpt lat="46.729700000" lon="-73.058410000">
<ele>0</ele>
<time>2026-09-04T07:26:23Z</time>
</trkpt>
<trkpt lat="46.730040000" lon="-73.058730000">
<ele>0</ele>
<time>2026-09-04T07:26:24Z</time>
</trkpt>
<trkpt lat="46.730330000" lon="-73.059120000">
<ele>0</ele>
<time>2026-09-04T07:26:25Z</time>
</trkpt>
<trkpt lat="46.730840000" lon="-73.060090000">
<ele>0</ele>
<time>2026-09-04T07:26:26Z</time>
</trkpt>
<trkpt lat="46.731160000" lon="-73.060690000">
<ele>0</ele>
<time>2026-09-04T07:26:27Z</time>
</trkpt>
<trkpt lat="46.731320000" lon="-73.060970000">
<ele>0</ele>
<time>2026-09-04T07:26:28Z</time>
</trkpt>
<trkpt lat="46.731510000" lon="-73.061180000">
<ele>0</ele>
<time>2026-09-04T07:26:29Z</time>
</trkpt>
<trkpt lat="46.731690000" lon="-73.061300000">
<ele>0</ele>
<time>2026-09-04T07:26:30Z</time>
</trkpt>
<trkpt lat="46.731890000" lon="-73.061380000">
<ele>0</ele>
<time>2026-09-04T07:26:31Z</time>
</trkpt>
<trkpt lat="46.732260000" lon="-73.061510000">
<ele>0</ele>
<time>2026-09-04T07:26:32Z</time>
</trkpt>
<trkpt lat="46.733290000" lon="-73.061900000">
<ele>0</ele>
<time>2026-09-04T07:26:33Z</time>
</trkpt>
<trkpt lat="46.734310000" lon="-73.062340000">
<ele>0</ele>
<time>2026-09-04T07:26:34Z</time>
</trkpt>
<trkpt lat="46.734830000" lon="-73.062610000">
<ele>0</ele>
<time>2026-09-04T07:26:35Z</time>
</trkpt>
<trkpt lat="46.735010000" lon="-73.062680000">
<ele>0</ele>
<time>2026-09-04T07:26:36Z</time>
</trkpt>
<trkpt lat="46.735410000" lon="-73.062800000">
<ele>0</ele>
<time>2026-09-04T07:26:37Z</time>
</trkpt>
<trkpt lat="46.736080000" lon="-73.062820000">
<ele>0</ele>
<time>2026-09-04T07:26:38Z</time>
</trkpt>
<trkpt lat="46.736430000" lon="-73.062890000">
<ele>0</ele>
<time>2026-09-04T07:26:39Z</time>
</trkpt>
<trkpt lat="46.736610000" lon="-73.062940000">
<ele>0</ele>
<time>2026-09-04T07:26:40Z</time>
</trkpt>
<trkpt lat="46.737120000" lon="-73.063210000">
<ele>0</ele>
<time>2026-09-04T07:26:41Z</time>
</trkpt>
<trkpt lat="46.737620000" lon="-73.063510000">
<ele>0</ele>
<time>2026-09-04T07:26:42Z</time>
</trkpt>
<trkpt lat="46.737840000" lon="-73.063630000">
<ele>0</ele>
<time>2026-09-04T07:26:43Z</time>
</trkpt>
<trkpt lat="46.737840000" lon="-73.063630000">
<ele>0</ele>
<time>2026-09-04T07:26:44Z</time>
</trkpt>
<trkpt lat="46.739010000" lon="-73.064280000">
<ele>0</ele>
<time>2026-09-04T07:26:45Z</time>
</trkpt>
<trkpt lat="46.739690000" lon="-73.064600000">
<ele>0</ele>
<time>2026-09-04T07:26:46Z</time>
</trkpt>
<trkpt lat="46.739870000" lon="-73.064680000">
<ele>0</ele>
<time>2026-09-04T07:26:47Z</time>
</trkpt>
<trkpt lat="46.740220000" lon="-73.064790000">
<ele>0</ele>
<time>2026-09-04T07:26:48Z</time>
</trkpt>
<trkpt lat="46.741100000" lon="-73.065060000">
<ele>0</ele>
<time>2026-09-04T07:26:49Z</time>
</trkpt>
<trkpt lat="46.741630000" lon="-73.065190000">
<ele>0</ele>
<time>2026-09-04T07:26:50Z</time>
</trkpt>
<trkpt lat="46.742340000" lon="-73.065340000">
<ele>0</ele>
<time>2026-09-04T07:26:51Z</time>
</trkpt>
<trkpt lat="46.742650000" lon="-73.065400000">
<ele>0</ele>
<time>2026-09-04T07:26:52Z</time>
</trkpt>
<trkpt lat="46.742870000" lon="-73.065480000">
<ele>0</ele>
<time>2026-09-04T07:26:53Z</time>
</trkpt>
<trkpt lat="46.743450000" lon="-73.065680000">
<ele>0</ele>
<time>2026-09-04T07:26:54Z</time>
</trkpt>
<trkpt lat="46.744030000" lon="-73.065900000">
<ele>0</ele>
<time>2026-09-04T07:26:55Z</time>
</trkpt>
<trkpt lat="46.744610000" lon="-73.066170000">
<ele>0</ele>
<time>2026-09-04T07:26:56Z</time>
</trkpt>
<trkpt lat="46.744780000" lon="-73.066250000">
<ele>0</ele>
<time>2026-09-04T07:26:58Z</time>
</trkpt>
<trkpt lat="46.745100000" lon="-73.066470000">
<ele>0</ele>
<time>2026-09-04T07:26:59Z</time>
</trkpt>
<trkpt lat="46.745760000" lon="-73.066910000">
<ele>0</ele>
<time>2026-09-04T07:27:00Z</time>
</trkpt>
<trkpt lat="46.746080000" lon="-73.067130000">
<ele>0</ele>
<time>2026-09-04T07:27:01Z</time>
</trkpt>
<trkpt lat="46.746400000" lon="-73.067390000">
<ele>0</ele>
<time>2026-09-04T07:27:02Z</time>
</trkpt>
<trkpt lat="46.746870000" lon="-73.067770000">
<ele>0</ele>
<time>2026-09-04T07:27:03Z</time>
</trkpt>
<trkpt lat="46.747610000" lon="-73.068520000">
<ele>0</ele>
<time>2026-09-04T07:27:04Z</time>
</trkpt>
<trkpt lat="46.748050000" lon="-73.068970000">
<ele>0</ele>
<time>2026-09-04T07:27:05Z</time>
</trkpt>
<trkpt lat="46.748210000" lon="-73.069120000">
<ele>0</ele>
<time>2026-09-04T07:27:06Z</time>
</trkpt>
<trkpt lat="46.748630000" lon="-73.069360000">
<ele>0</ele>
<time>2026-09-04T07:27:07Z</time>
</trkpt>
<trkpt lat="46.748710000" lon="-73.069380000">
<ele>0</ele>
<time>2026-09-04T07:27:08Z</time>
</trkpt>
<trkpt lat="46.748870000" lon="-73.069420000">
<ele>0</ele>
<time>2026-09-04T07:27:09Z</time>
</trkpt>
<trkpt lat="46.749060000" lon="-73.069410000">
<ele>0</ele>
<time>2026-09-04T07:27:10Z</time>
</trkpt>
<trkpt lat="46.749240000" lon="-73.069350000">
<ele>0</ele>
<time>2026-09-04T07:27:11Z</time>
</trkpt>
<trkpt lat="46.749410000" lon="-73.069260000">
<ele>0</ele>
<time>2026-09-04T07:27:12Z</time>
</trkpt>
<trkpt lat="46.749560000" lon="-73.069130000">
<ele>0</ele>
<time>2026-09-04T07:27:13Z</time>
</trkpt>
<trkpt lat="46.749710000" lon="-73.068980000">
<ele>0</ele>
<time>2026-09-04T07:27:14Z</time>
</trkpt>
<trkpt lat="46.749940000" lon="-73.068580000">
<ele>0</ele>
<time>2026-09-04T07:27:15Z</time>
</trkpt>
<trkpt lat="46.750040000" lon="-73.068360000">
<ele>0</ele>
<time>2026-09-04T07:27:16Z</time>
</trkpt>
<trkpt lat="46.750120000" lon="-73.068130000">
<ele>0</ele>
<time>2026-09-04T07:27:17Z</time>
</trkpt>
<trkpt lat="46.750160000" lon="-73.067880000">
<ele>0</ele>
<time>2026-09-04T07:27:18Z</time>
</trkpt>
<trkpt lat="46.750180000" lon="-73.067610000">
<ele>0</ele>
<time>2026-09-04T07:27:19Z</time>
</trkpt>
<trkpt lat="46.750180000" lon="-73.066830000">
<ele>0</ele>
<time>2026-09-04T07:27:20Z</time>
</trkpt>
<trkpt lat="46.750220000" lon="-73.065730000">
<ele>0</ele>
<time>2026-09-04T07:27:21Z</time>
</trkpt>
<trkpt lat="46.750300000" lon="-73.065000000">
<ele>0</ele>
<time>2026-09-04T07:27:22Z</time>
</trkpt>
<trkpt lat="46.750480000" lon="-73.064260000">
<ele>0</ele>
<time>2026-09-04T07:27:23Z</time>
</trkpt>
<trkpt lat="46.750570000" lon="-73.064030000">
<ele>0</ele>
<time>2026-09-04T07:27:24Z</time>
</trkpt>
<trkpt lat="46.750770000" lon="-73.063590000">
<ele>0</ele>
<time>2026-09-04T07:27:25Z</time>
</trkpt>
<trkpt lat="46.750910000" lon="-73.063200000">
<ele>0</ele>
<time>2026-09-04T07:27:26Z</time>
</trkpt>
<trkpt lat="46.750990000" lon="-73.062880000">
<ele>0</ele>
<time>2026-09-04T07:27:27Z</time>
</trkpt>
<trkpt lat="46.751070000" lon="-73.062580000">
<ele>0</ele>
<time>2026-09-04T07:27:28Z</time>
</trkpt>
<trkpt lat="46.751090000" lon="-73.062380000">
<ele>0</ele>
<time>2026-09-04T07:27:29Z</time>
</trkpt>
<trkpt lat="46.751110000" lon="-73.062120000">
<ele>0</ele>
<time>2026-09-04T07:27:30Z</time>
</trkpt>
<trkpt lat="46.751150000" lon="-73.061600000">
<ele>0</ele>
<time>2026-09-04T07:27:31Z</time>
</trkpt>
<trkpt lat="46.751210000" lon="-73.060810000">
<ele>0</ele>
<time>2026-09-04T07:27:32Z</time>
</trkpt>
<trkpt lat="46.751250000" lon="-73.060440000">
<ele>0</ele>
<time>2026-09-04T07:27:33Z</time>
</trkpt>
<trkpt lat="46.751340000" lon="-73.060060000">
<ele>0</ele>
<time>2026-09-04T07:27:34Z</time>
</trkpt>
<trkpt lat="46.751540000" lon="-73.059330000">
<ele>0</ele>
<time>2026-09-04T07:27:35Z</time>
</trkpt>
<trkpt lat="46.751790000" lon="-73.058690000">
<ele>0</ele>
<time>2026-09-04T07:27:36Z</time>
</trkpt>
<trkpt lat="46.751920000" lon="-73.058430000">
<ele>0</ele>
<time>2026-09-04T07:27:37Z</time>
</trkpt>
<trkpt lat="46.752140000" lon="-73.058030000">
<ele>0</ele>
<time>2026-09-04T07:27:38Z</time>
</trkpt>
<trkpt lat="46.752370000" lon="-73.057700000">
<ele>0</ele>
<time>2026-09-04T07:27:39Z</time>
</trkpt>
<trkpt lat="46.752210000" lon="-73.057500000">
<ele>0</ele>
<time>2026-09-04T07:27:40Z</time>
</trkpt>
<trkpt lat="46.752210000" lon="-73.057500000">
<ele>0</ele>
<time>2026-09-04T07:27:41Z</time>
</trkpt>
<trkpt lat="46.751850000" lon="-73.057010000">
<ele>0</ele>
<time>2026-09-04T07:27:42Z</time>
</trkpt>
<trkpt lat="46.751660000" lon="-73.056830000">
<ele>0</ele>
<time>2026-09-04T07:27:43Z</time>
</trkpt>
<trkpt lat="46.751480000" lon="-73.056660000">
<ele>0</ele>
<time>2026-09-04T07:27:44Z</time>
</trkpt>
<trkpt lat="46.751190000" lon="-73.056440000">
<ele>0</ele>
<time>2026-09-04T07:27:45Z</time>
</trkpt>
<trkpt lat="46.751020000" lon="-73.056360000">
<ele>0</ele>
<time>2026-09-04T07:27:46Z</time>
</trkpt>
<trkpt lat="46.750830000" lon="-73.056290000">
<ele>0</ele>
<time>2026-09-04T07:27:47Z</time>
</trkpt>
<trkpt lat="46.750400000" lon="-73.056180000">
<ele>0</ele>
<time>2026-09-04T07:27:48Z</time>
</trkpt>
<trkpt lat="46.750350000" lon="-73.056180000">
<ele>0</ele>
<time>2026-09-04T07:27:49Z</time>
</trkpt>
<trkpt lat="46.750350000" lon="-73.056180000">
<ele>0</ele>
<time>2026-09-04T07:27:50Z</time>
</trkpt>
<trkpt lat="46.750050000" lon="-73.056170000">
<ele>0</ele>
<time>2026-09-04T07:27:51Z</time>
</trkpt>
<trkpt lat="46.749870000" lon="-73.056210000">
<ele>0</ele>
<time>2026-09-04T07:27:52Z</time>
</trkpt>
<trkpt lat="46.749710000" lon="-73.056240000">
<ele>0</ele>
<time>2026-09-04T07:27:53Z</time>
</trkpt>
<trkpt lat="46.749710000" lon="-73.056240000">
<ele>0</ele>
<time>2026-09-04T07:27:54Z</time>
</trkpt>
<trkpt lat="46.749680000" lon="-73.056250000">
<ele>0</ele>
<time>2026-09-04T07:27:55Z</time>
</trkpt>
<trkpt lat="46.749680000" lon="-73.056250000">
<ele>0</ele>
<time>2026-09-04T07:27:56Z</time>
</trkpt>
<trkpt lat="46.750040000" lon="-73.056170000">
<ele>0</ele>
<time>2026-09-04T07:27:57Z</time>
</trkpt>
<trkpt lat="46.750410000" lon="-73.056180000">
<ele>0</ele>
<time>2026-09-04T07:27:58Z</time>
</trkpt>
<trkpt lat="46.750940000" lon="-73.056330000">
<ele>0</ele>
<time>2026-09-04T07:27:59Z</time>
</trkpt>
<trkpt lat="46.751130000" lon="-73.056390000">
<ele>0</ele>
<time>2026-09-04T07:28:00Z</time>
</trkpt>
<trkpt lat="46.751350000" lon="-73.056560000">
<ele>0</ele>
<time>2026-09-04T07:28:01Z</time>
</trkpt>
<trkpt lat="46.751510000" lon="-73.056690000">
<ele>0</ele>
<time>2026-09-04T07:28:02Z</time>
</trkpt>
<trkpt lat="46.751810000" lon="-73.056970000">
<ele>0</ele>
<time>2026-09-04T07:28:03Z</time>
</trkpt>
<trkpt lat="46.752370000" lon="-73.057700000">
<ele>0</ele>
<time>2026-09-04T07:28:04Z</time>
</trkpt>
<trkpt lat="46.752210000" lon="-73.057930000">
<ele>0</ele>
<time>2026-09-04T07:28:05Z</time>
</trkpt>
<trkpt lat="46.752210000" lon="-73.057930000">
<ele>0</ele>
<time>2026-09-04T07:28:06Z</time>
</trkpt>
<trkpt lat="46.752040000" lon="-73.058190000">
<ele>0</ele>
<time>2026-09-04T07:28:07Z</time>
</trkpt>
<trkpt lat="46.751810000" lon="-73.058640000">
<ele>0</ele>
<time>2026-09-04T07:28:08Z</time>
</trkpt>
<trkpt lat="46.751570000" lon="-73.059230000">
<ele>0</ele>
<time>2026-09-04T07:28:09Z</time>
</trkpt>
<trkpt lat="46.751400000" lon="-73.059810000">
<ele>0</ele>
<time>2026-09-04T07:28:10Z</time>
</trkpt>
<trkpt lat="46.751280000" lon="-73.060300000">
<ele>0</ele>
<time>2026-09-04T07:28:11Z</time>
</trkpt>
<trkpt lat="46.751230000" lon="-73.060560000">
<ele>0</ele>
<time>2026-09-04T07:28:12Z</time>
</trkpt>
<trkpt lat="46.751160000" lon="-73.061340000">
<ele>0</ele>
<time>2026-09-04T07:28:13Z</time>
</trkpt>
<trkpt lat="46.751110000" lon="-73.062220000">
<ele>0</ele>
<time>2026-09-04T07:28:14Z</time>
</trkpt>
<trkpt lat="46.751070000" lon="-73.062580000">
<ele>0</ele>
<time>2026-09-04T07:28:15Z</time>
</trkpt>
<trkpt lat="46.750930000" lon="-73.063130000">
<ele>0</ele>
<time>2026-09-04T07:28:16Z</time>
</trkpt>
<trkpt lat="46.750800000" lon="-73.063510000">
<ele>0</ele>
<time>2026-09-04T07:28:17Z</time>
</trkpt>
<trkpt lat="46.750670000" lon="-73.063810000">
<ele>0</ele>
<time>2026-09-04T07:28:18Z</time>
</trkpt>
<trkpt lat="46.750510000" lon="-73.064140000">
<ele>0</ele>
<time>2026-09-04T07:28:19Z</time>
</trkpt>
<trkpt lat="46.750360000" lon="-73.064750000">
<ele>0</ele>
<time>2026-09-04T07:28:20Z</time>
</trkpt>
<trkpt lat="46.750290000" lon="-73.065010000">
<ele>0</ele>
<time>2026-09-04T07:28:21Z</time>
</trkpt>
<trkpt lat="46.750240000" lon="-73.065520000">
<ele>0</ele>
<time>2026-09-04T07:28:22Z</time>
</trkpt>
<trkpt lat="46.750200000" lon="-73.066300000">
<ele>0</ele>
<time>2026-09-04T07:28:23Z</time>
</trkpt>
<trkpt lat="46.750190000" lon="-73.066750000">
<ele>0</ele>
<time>2026-09-04T07:28:24Z</time>
</trkpt>
<trkpt lat="46.750180000" lon="-73.067350000">
<ele>0</ele>
<time>2026-09-04T07:28:25Z</time>
</trkpt>
<trkpt lat="46.750150000" lon="-73.068010000">
<ele>0</ele>
<time>2026-09-04T07:28:26Z</time>
</trkpt>
<trkpt lat="46.749960000" lon="-73.068550000">
<ele>0</ele>
<time>2026-09-04T07:28:27Z</time>
</trkpt>
<trkpt lat="46.749700000" lon="-73.069000000">
<ele>0</ele>
<time>2026-09-04T07:28:28Z</time>
</trkpt>
<trkpt lat="46.749540000" lon="-73.069160000">
<ele>0</ele>
<time>2026-09-04T07:28:29Z</time>
</trkpt>
<trkpt lat="46.749310000" lon="-73.069330000">
<ele>0</ele>
<time>2026-09-04T07:28:30Z</time>
</trkpt>
<trkpt lat="46.749080000" lon="-73.069410000">
<ele>0</ele>
<time>2026-09-04T07:28:31Z</time>
</trkpt>
<trkpt lat="46.748870000" lon="-73.069420000">
<ele>0</ele>
<time>2026-09-04T07:28:32Z</time>
</trkpt>
<trkpt lat="46.748630000" lon="-73.069360000">
<ele>0</ele>
<time>2026-09-04T07:28:33Z</time>
</trkpt>
<trkpt lat="46.748200000" lon="-73.069110000">
<ele>0</ele>
<time>2026-09-04T07:28:34Z</time>
</trkpt>
<trkpt lat="46.747750000" lon="-73.068670000">
<ele>0</ele>
<time>2026-09-04T07:28:35Z</time>
</trkpt>
<trkpt lat="46.747160000" lon="-73.068070000">
<ele>0</ele>
<time>2026-09-04T07:28:36Z</time>
</trkpt>
<trkpt lat="46.746830000" lon="-73.067730000">
<ele>0</ele>
<time>2026-09-04T07:28:37Z</time>
</trkpt>
<trkpt lat="46.746560000" lon="-73.067510000">
<ele>0</ele>
<time>2026-09-04T07:28:38Z</time>
</trkpt>
<trkpt lat="46.746010000" lon="-73.067080000">
<ele>0</ele>
<time>2026-09-04T07:28:39Z</time>
</trkpt>
<trkpt lat="46.744770000" lon="-73.066250000">
<ele>0</ele>
<time>2026-09-04T07:28:40Z</time>
</trkpt>
<trkpt lat="46.744090000" lon="-73.065930000">
<ele>0</ele>
<time>2026-09-04T07:28:41Z</time>
</trkpt>
<trkpt lat="46.743570000" lon="-73.065730000">
<ele>0</ele>
<time>2026-09-04T07:28:42Z</time>
</trkpt>
<trkpt lat="46.743050000" lon="-73.065540000">
<ele>0</ele>
<time>2026-09-04T07:28:43Z</time>
</trkpt>
<trkpt lat="46.742700000" lon="-73.065420000">
<ele>0</ele>
<time>2026-09-04T07:28:44Z</time>
</trkpt>
<trkpt lat="46.742520000" lon="-73.065380000">
<ele>0</ele>
<time>2026-09-04T07:28:45Z</time>
</trkpt>
<trkpt lat="46.741810000" lon="-73.065230000">
<ele>0</ele>
<time>2026-09-04T07:28:46Z</time>
</trkpt>
<trkpt lat="46.741270000" lon="-73.065110000">
<ele>0</ele>
<time>2026-09-04T07:28:47Z</time>
</trkpt>
<trkpt lat="46.739860000" lon="-73.064680000">
<ele>0</ele>
<time>2026-09-04T07:28:48Z</time>
</trkpt>
<trkpt lat="46.739180000" lon="-73.064360000">
<ele>0</ele>
<time>2026-09-04T07:28:49Z</time>
</trkpt>
<trkpt lat="46.738670000" lon="-73.064090000">
<ele>0</ele>
<time>2026-09-04T07:28:50Z</time>
</trkpt>
<trkpt lat="46.738180000" lon="-73.063820000">
<ele>0</ele>
<time>2026-09-04T07:28:51Z</time>
</trkpt>
<trkpt lat="46.738180000" lon="-73.063820000">
<ele>0</ele>
<time>2026-09-04T07:28:52Z</time>
</trkpt>
<trkpt lat="46.737280000" lon="-73.063310000">
<ele>0</ele>
<time>2026-09-04T07:28:53Z</time>
</trkpt>
<trkpt lat="46.736780000" lon="-73.063030000">
<ele>0</ele>
<time>2026-09-04T07:28:54Z</time>
</trkpt>
<trkpt lat="46.736570000" lon="-73.062920000">
<ele>0</ele>
<time>2026-09-04T07:28:55Z</time>
</trkpt>
<trkpt lat="46.736160000" lon="-73.062820000">
<ele>0</ele>
<time>2026-09-04T07:28:56Z</time>
</trkpt>
<trkpt lat="46.735540000" lon="-73.062800000">
<ele>0</ele>
<time>2026-09-04T07:28:57Z</time>
</trkpt>
<trkpt lat="46.735360000" lon="-73.062780000">
<ele>0</ele>
<time>2026-09-04T07:28:58Z</time>
</trkpt>
<trkpt lat="46.735140000" lon="-73.062730000">
<ele>0</ele>
<time>2026-09-04T07:28:59Z</time>
</trkpt>
<trkpt lat="46.734830000" lon="-73.062610000">
<ele>0</ele>
<time>2026-09-04T07:29:00Z</time>
</trkpt>
<trkpt lat="46.734320000" lon="-73.062350000">
<ele>0</ele>
<time>2026-09-04T07:29:01Z</time>
</trkpt>
<trkpt lat="46.733460000" lon="-73.061970000">
<ele>0</ele>
<time>2026-09-04T07:29:02Z</time>
</trkpt>
<trkpt lat="46.732590000" lon="-73.061630000">
<ele>0</ele>
<time>2026-09-04T07:29:03Z</time>
</trkpt>
<trkpt lat="46.731900000" lon="-73.061380000">
<ele>0</ele>
<time>2026-09-04T07:29:04Z</time>
</trkpt>
<trkpt lat="46.731720000" lon="-73.061320000">
<ele>0</ele>
<time>2026-09-04T07:29:05Z</time>
</trkpt>
<trkpt lat="46.731560000" lon="-73.061210000">
<ele>0</ele>
<time>2026-09-04T07:29:06Z</time>
</trkpt>
<trkpt lat="46.731410000" lon="-73.061070000">
<ele>0</ele>
<time>2026-09-04T07:29:07Z</time>
</trkpt>
<trkpt lat="46.731280000" lon="-73.060890000">
<ele>0</ele>
<time>2026-09-04T07:29:08Z</time>
</trkpt>
<trkpt lat="46.730940000" lon="-73.060280000">
<ele>0</ele>
<time>2026-09-04T07:29:09Z</time>
</trkpt>
<trkpt lat="46.730670000" lon="-73.059730000">
<ele>0</ele>
<time>2026-09-04T07:29:10Z</time>
</trkpt>
<trkpt lat="46.730390000" lon="-73.059240000">
<ele>0</ele>
<time>2026-09-04T07:29:11Z</time>
</trkpt>
<trkpt lat="46.730140000" lon="-73.058860000">
<ele>0</ele>
<time>2026-09-04T07:29:12Z</time>
</trkpt>
<trkpt lat="46.730000000" lon="-73.058700000">
<ele>0</ele>
<time>2026-09-04T07:29:13Z</time>
</trkpt>
<trkpt lat="46.729710000" lon="-73.058420000">
<ele>0</ele>
<time>2026-09-04T07:29:14Z</time>
</trkpt>
<trkpt lat="46.729540000" lon="-73.058310000">
<ele>0</ele>
<time>2026-09-04T07:29:15Z</time>
</trkpt>
<trkpt lat="46.729370000" lon="-73.058230000">
<ele>0</ele>
<time>2026-09-04T07:29:16Z</time>
</trkpt>
<trkpt lat="46.728880000" lon="-73.058050000">
<ele>0</ele>
<time>2026-09-04T07:29:17Z</time>
</trkpt>
<trkpt lat="46.728680000" lon="-73.057930000">
<ele>0</ele>
<time>2026-09-04T07:29:18Z</time>
</trkpt>
<trkpt lat="46.728400000" lon="-73.057740000">
<ele>0</ele>
<time>2026-09-04T07:29:19Z</time>
</trkpt>
<trkpt lat="46.727710000" lon="-73.057260000">
<ele>0</ele>
<time>2026-09-04T07:29:20Z</time>
</trkpt>
<trkpt lat="46.727270000" lon="-73.056930000">
<ele>0</ele>
<time>2026-09-04T07:29:21Z</time>
</trkpt>
<trkpt lat="46.726730000" lon="-73.056570000">
<ele>0</ele>
<time>2026-09-04T07:29:22Z</time>
</trkpt>
<trkpt lat="46.726560000" lon="-73.056510000">
<ele>0</ele>
<time>2026-09-04T07:29:23Z</time>
</trkpt>
<trkpt lat="46.726380000" lon="-73.056480000">
<ele>0</ele>
<time>2026-09-04T07:29:24Z</time>
</trkpt>
<trkpt lat="46.726200000" lon="-73.056460000">
<ele>0</ele>
<time>2026-09-04T07:29:25Z</time>
</trkpt>
<trkpt lat="46.726050000" lon="-73.056470000">
<ele>0</ele>
<time>2026-09-04T07:29:26Z</time>
</trkpt>
<trkpt lat="46.725680000" lon="-73.056660000">
<ele>0</ele>
<time>2026-09-04T07:29:27Z</time>
</trkpt>
<trkpt lat="46.725510000" lon="-73.056710000">
<ele>0</ele>
<time>2026-09-04T07:29:28Z</time>
</trkpt>
<trkpt lat="46.725330000" lon="-73.056730000">
<ele>0</ele>
<time>2026-09-04T07:29:29Z</time>
</trkpt>
<trkpt lat="46.725100000" lon="-73.056750000">
<ele>0</ele>
<time>2026-09-04T07:29:30Z</time>
</trkpt>
<trkpt lat="46.724810000" lon="-73.056630000">
<ele>0</ele>
<time>2026-09-04T07:29:31Z</time>
</trkpt>
<trkpt lat="46.724640000" lon="-73.056520000">
<ele>0</ele>
<time>2026-09-04T07:29:32Z</time>
</trkpt>
<trkpt lat="46.724340000" lon="-73.056210000">
<ele>0</ele>
<time>2026-09-04T07:29:33Z</time>
</trkpt>
<trkpt lat="46.724240000" lon="-73.056000000">
<ele>0</ele>
<time>2026-09-04T07:29:34Z</time>
</trkpt>
<trkpt lat="46.724140000" lon="-73.055780000">
<ele>0</ele>
<time>2026-09-04T07:29:35Z</time>
</trkpt>
<trkpt lat="46.723940000" lon="-73.055050000">
<ele>0</ele>
<time>2026-09-04T07:29:36Z</time>
</trkpt>
<trkpt lat="46.723650000" lon="-73.054090000">
<ele>0</ele>
<time>2026-09-04T07:29:37Z</time>
</trkpt>
<trkpt lat="46.723590000" lon="-73.053850000">
<ele>0</ele>
<time>2026-09-04T07:29:38Z</time>
</trkpt>
<trkpt lat="46.723520000" lon="-73.053330000">
<ele>0</ele>
<time>2026-09-04T07:29:39Z</time>
</trkpt>
<trkpt lat="46.723380000" lon="-73.052650000">
<ele>0</ele>
<time>2026-09-04T07:29:40Z</time>
</trkpt>
<trkpt lat="46.722930000" lon="-73.050410000">
<ele>0</ele>
<time>2026-09-04T07:29:41Z</time>
</trkpt>
<trkpt lat="46.722850000" lon="-73.050180000">
<ele>0</ele>
<time>2026-09-04T07:29:42Z</time>
</trkpt>
<trkpt lat="46.722780000" lon="-73.050080000">
<ele>0</ele>
<time>2026-09-04T07:29:43Z</time>
</trkpt>
<trkpt lat="46.722660000" lon="-73.049940000">
<ele>0</ele>
<time>2026-09-04T07:29:44Z</time>
</trkpt>
<trkpt lat="46.722280000" lon="-73.049630000">
<ele>0</ele>
<time>2026-09-04T07:29:45Z</time>
</trkpt>
<trkpt lat="46.722000000" lon="-73.049520000">
<ele>0</ele>
<time>2026-09-04T07:29:46Z</time>
</trkpt>
<trkpt lat="46.721820000" lon="-73.049510000">
<ele>0</ele>
<time>2026-09-04T07:29:47Z</time>
</trkpt>
<trkpt lat="46.721760000" lon="-73.049510000">
<ele>0</ele>
<time>2026-09-04T07:29:48Z</time>
</trkpt>
<trkpt lat="46.721570000" lon="-73.049570000">
<ele>0</ele>
<time>2026-09-04T07:29:49Z</time>
</trkpt>
<trkpt lat="46.721380000" lon="-73.049670000">
<ele>0</ele>
<time>2026-09-04T07:29:50Z</time>
</trkpt>
<trkpt lat="46.721150000" lon="-73.049850000">
<ele>0</ele>
<time>2026-09-04T07:29:51Z</time>
</trkpt>
<trkpt lat="46.721010000" lon="-73.050010000">
<ele>0</ele>
<time>2026-09-04T07:29:52Z</time>
</trkpt>
<trkpt lat="46.720900000" lon="-73.050210000">
<ele>0</ele>
<time>2026-09-04T07:29:53Z</time>
</trkpt>
<trkpt lat="46.720760000" lon="-73.050700000">
<ele>0</ele>
<time>2026-09-04T07:29:54Z</time>
</trkpt>
<trkpt lat="46.720670000" lon="-73.051120000">
<ele>0</ele>
<time>2026-09-04T07:29:55Z</time>
</trkpt>
<trkpt lat="46.720680000" lon="-73.051990000">
<ele>0</ele>
<time>2026-09-04T07:29:56Z</time>
</trkpt>
<trkpt lat="46.720680000" lon="-73.052840000">
<ele>0</ele>
<time>2026-09-04T07:29:57Z</time>
</trkpt>
<trkpt lat="46.720710000" lon="-73.053220000">
<ele>0</ele>
<time>2026-09-04T07:29:58Z</time>
</trkpt>
<trkpt lat="46.720810000" lon="-73.053810000">
<ele>0</ele>
<time>2026-09-04T07:29:59Z</time>
</trkpt>
<trkpt lat="46.721000000" lon="-73.054670000">
<ele>0</ele>
<time>2026-09-04T07:30:00Z</time>
</trkpt>
<trkpt lat="46.721010000" lon="-73.054950000">
<ele>0</ele>
<time>2026-09-04T07:30:01Z</time>
</trkpt>
<trkpt lat="46.721010000" lon="-73.055480000">
<ele>0</ele>
<time>2026-09-04T07:30:02Z</time>
</trkpt>
<trkpt lat="46.720880000" lon="-73.056270000">
<ele>0</ele>
<time>2026-09-04T07:30:03Z</time>
</trkpt>
<trkpt lat="46.720700000" lon="-73.056830000">
<ele>0</ele>
<time>2026-09-04T07:30:04Z</time>
</trkpt>
<trkpt lat="46.720580000" lon="-73.057090000">
<ele>0</ele>
<time>2026-09-04T07:30:05Z</time>
</trkpt>
<trkpt lat="46.720390000" lon="-73.057410000">
<ele>0</ele>
<time>2026-09-04T07:30:06Z</time>
</trkpt>
<trkpt lat="46.720100000" lon="-73.057750000">
<ele>0</ele>
<time>2026-09-04T07:30:07Z</time>
</trkpt>
<trkpt lat="46.719610000" lon="-73.058170000">
<ele>0</ele>
<time>2026-09-04T07:30:08Z</time>
</trkpt>
<trkpt lat="46.719270000" lon="-73.058540000">
<ele>0</ele>
<time>2026-09-04T07:30:09Z</time>
</trkpt>
<trkpt lat="46.719090000" lon="-73.058880000">
<ele>0</ele>
<time>2026-09-04T07:30:10Z</time>
</trkpt>
<trkpt lat="46.718890000" lon="-73.059340000">
<ele>0</ele>
<time>2026-09-04T07:30:11Z</time>
</trkpt>
<trkpt lat="46.718460000" lon="-73.060470000">
<ele>0</ele>
<time>2026-09-04T07:30:12Z</time>
</trkpt>
<trkpt lat="46.718310000" lon="-73.060840000">
<ele>0</ele>
<time>2026-09-04T07:30:13Z</time>
</trkpt>
<trkpt lat="46.718140000" lon="-73.061110000">
<ele>0</ele>
<time>2026-09-04T07:30:14Z</time>
</trkpt>
<trkpt lat="46.718010000" lon="-73.061320000">
<ele>0</ele>
<time>2026-09-04T07:30:15Z</time>
</trkpt>
<trkpt lat="46.717790000" lon="-73.061520000">
<ele>0</ele>
<time>2026-09-04T07:30:16Z</time>
</trkpt>
<trkpt lat="46.717380000" lon="-73.061760000">
<ele>0</ele>
<time>2026-09-04T07:30:17Z</time>
</trkpt>
<trkpt lat="46.717210000" lon="-73.061830000">
<ele>0</ele>
<time>2026-09-04T07:30:18Z</time>
</trkpt>
<trkpt lat="46.717030000" lon="-73.061860000">
<ele>0</ele>
<time>2026-09-04T07:30:19Z</time>
</trkpt>
<trkpt lat="46.716850000" lon="-73.061840000">
<ele>0</ele>
<time>2026-09-04T07:30:20Z</time>
</trkpt>
<trkpt lat="46.716540000" lon="-73.061760000">
<ele>0</ele>
<time>2026-09-04T07:30:21Z</time>
</trkpt>
<trkpt lat="46.716330000" lon="-73.061640000">
<ele>0</ele>
<time>2026-09-04T07:30:22Z</time>
</trkpt>
<trkpt lat="46.716170000" lon="-73.061530000">
<ele>0</ele>
<time>2026-09-04T07:30:23Z</time>
</trkpt>
<trkpt lat="46.715940000" lon="-73.061310000">
<ele>0</ele>
<time>2026-09-04T07:30:24Z</time>
</trkpt>
<trkpt lat="46.715750000" lon="-73.061050000">
<ele>0</ele>
<time>2026-09-04T07:30:25Z</time>
</trkpt>
<trkpt lat="46.715650000" lon="-73.060830000">
<ele>0</ele>
<time>2026-09-04T07:30:26Z</time>
</trkpt>
<trkpt lat="46.715560000" lon="-73.060600000">
<ele>0</ele>
<time>2026-09-04T07:30:27Z</time>
</trkpt>
<trkpt lat="46.715470000" lon="-73.060360000">
<ele>0</ele>
<time>2026-09-04T07:30:28Z</time>
</trkpt>
<trkpt lat="46.715410000" lon="-73.060060000">
<ele>0</ele>
<time>2026-09-04T07:30:29Z</time>
</trkpt>
<trkpt lat="46.715380000" lon="-73.059670000">
<ele>0</ele>
<time>2026-09-04T07:30:30Z</time>
</trkpt>
<trkpt lat="46.715370000" lon="-73.059340000">
<ele>0</ele>
<time>2026-09-04T07:30:31Z</time>
</trkpt>
<trkpt lat="46.715460000" lon="-73.058560000">
<ele>0</ele>
<time>2026-09-04T07:30:32Z</time>
</trkpt>
<trkpt lat="46.715480000" lon="-73.058300000">
<ele>0</ele>
<time>2026-09-04T07:30:33Z</time>
</trkpt>
<trkpt lat="46.715460000" lon="-73.057960000">
<ele>0</ele>
<time>2026-09-04T07:30:34Z</time>
</trkpt>
<trkpt lat="46.715400000" lon="-73.057640000">
<ele>0</ele>
<time>2026-09-04T07:30:35Z</time>
</trkpt>
<trkpt lat="46.715360000" lon="-73.057540000">
<ele>0</ele>
<time>2026-09-04T07:30:36Z</time>
</trkpt>
<trkpt lat="46.715270000" lon="-73.057320000">
<ele>0</ele>
<time>2026-09-04T07:30:37Z</time>
</trkpt>
<trkpt lat="46.714980000" lon="-73.056660000">
<ele>0</ele>
<time>2026-09-04T07:30:38Z</time>
</trkpt>
<trkpt lat="46.714600000" lon="-73.055770000">
<ele>0</ele>
<time>2026-09-04T07:30:39Z</time>
</trkpt>
<trkpt lat="46.714380000" lon="-73.055050000">
<ele>0</ele>
<time>2026-09-04T07:30:40Z</time>
</trkpt>
<trkpt lat="46.714060000" lon="-73.054110000">
<ele>0</ele>
<time>2026-09-04T07:30:41Z</time>
</trkpt>
<trkpt lat="46.713960000" lon="-73.053820000">
<ele>0</ele>
<time>2026-09-04T07:30:42Z</time>
</trkpt>
<trkpt lat="46.713860000" lon="-73.053380000">
<ele>0</ele>
<time>2026-09-04T07:30:43Z</time>
</trkpt>
<trkpt lat="46.713650000" lon="-73.052500000">
<ele>0</ele>
<time>2026-09-04T07:30:44Z</time>
</trkpt>
<trkpt lat="46.713480000" lon="-73.051500000">
<ele>0</ele>
<time>2026-09-04T07:30:45Z</time>
</trkpt>
<trkpt lat="46.713400000" lon="-73.050880000">
<ele>0</ele>
<time>2026-09-04T07:30:46Z</time>
</trkpt>
<trkpt lat="46.713280000" lon="-73.049430000">
<ele>0</ele>
<time>2026-09-04T07:30:47Z</time>
</trkpt>
<trkpt lat="46.713260000" lon="-73.048500000">
<ele>0</ele>
<time>2026-09-04T07:30:48Z</time>
</trkpt>
<trkpt lat="46.713220000" lon="-73.047450000">
<ele>0</ele>
<time>2026-09-04T07:30:49Z</time>
</trkpt>
<trkpt lat="46.713150000" lon="-73.046670000">
<ele>0</ele>
<time>2026-09-04T07:30:50Z</time>
</trkpt>
<trkpt lat="46.713140000" lon="-73.046500000">
<ele>0</ele>
<time>2026-09-04T07:30:51Z</time>
</trkpt>
<trkpt lat="46.713050000" lon="-73.046170000">
<ele>0</ele>
<time>2026-09-04T07:30:52Z</time>
</trkpt>
<trkpt lat="46.712980000" lon="-73.045920000">
<ele>0</ele>
<time>2026-09-04T07:30:53Z</time>
</trkpt>
<trkpt lat="46.712770000" lon="-73.045510000">
<ele>0</ele>
<time>2026-09-04T07:30:54Z</time>
</trkpt>
<trkpt lat="46.712640000" lon="-73.045330000">
<ele>0</ele>
<time>2026-09-04T07:30:55Z</time>
</trkpt>
<trkpt lat="46.712260000" lon="-73.044900000">
<ele>0</ele>
<time>2026-09-04T07:30:56Z</time>
</trkpt>
<trkpt lat="46.712100000" lon="-73.044720000">
<ele>0</ele>
<time>2026-09-04T07:30:57Z</time>
</trkpt>
<trkpt lat="46.711960000" lon="-73.044480000">
<ele>0</ele>
<time>2026-09-04T07:30:58Z</time>
</trkpt>
<trkpt lat="46.711870000" lon="-73.044230000">
<ele>0</ele>
<time>2026-09-04T07:30:59Z</time>
</trkpt>
<trkpt lat="46.711810000" lon="-73.043950000">
<ele>0</ele>
<time>2026-09-04T07:31:00Z</time>
</trkpt>
<trkpt lat="46.711770000" lon="-73.043710000">
<ele>0</ele>
<time>2026-09-04T07:31:01Z</time>
</trkpt>
<trkpt lat="46.711750000" lon="-73.043420000">
<ele>0</ele>
<time>2026-09-04T07:31:02Z</time>
</trkpt>
<trkpt lat="46.711790000" lon="-73.043010000">
<ele>0</ele>
<time>2026-09-04T07:31:03Z</time>
</trkpt>
<trkpt lat="46.711850000" lon="-73.042710000">
<ele>0</ele>
<time>2026-09-04T07:31:04Z</time>
</trkpt>
<trkpt lat="46.711930000" lon="-73.042480000">
<ele>0</ele>
<time>2026-09-04T07:31:05Z</time>
</trkpt>
<trkpt lat="46.712030000" lon="-73.042260000">
<ele>0</ele>
<time>2026-09-04T07:31:06Z</time>
</trkpt>
<trkpt lat="46.712510000" lon="-73.041480000">
<ele>0</ele>
<time>2026-09-04T07:31:07Z</time>
</trkpt>
<trkpt lat="46.712590000" lon="-73.041360000">
<ele>0</ele>
<time>2026-09-04T07:31:08Z</time>
</trkpt>
<trkpt lat="46.712660000" lon="-73.041170000">
<ele>0</ele>
<time>2026-09-04T07:31:09Z</time>
</trkpt>
<trkpt lat="46.712750000" lon="-73.040870000">
<ele>0</ele>
<time>2026-09-04T07:31:10Z</time>
</trkpt>
<trkpt lat="46.712800000" lon="-73.040270000">
<ele>0</ele>
<time>2026-09-04T07:31:11Z</time>
</trkpt>
<trkpt lat="46.712830000" lon="-73.039840000">
<ele>0</ele>
<time>2026-09-04T07:31:12Z</time>
</trkpt>
<trkpt lat="46.712800000" lon="-73.039490000">
<ele>0</ele>
<time>2026-09-04T07:31:13Z</time>
</trkpt>
<trkpt lat="46.712750000" lon="-73.039220000">
<ele>0</ele>
<time>2026-09-04T07:31:14Z</time>
</trkpt>
<trkpt lat="46.712620000" lon="-73.038870000">
<ele>0</ele>
<time>2026-09-04T07:31:15Z</time>
</trkpt>
<trkpt lat="46.712230000" lon="-73.038270000">
<ele>0</ele>
<time>2026-09-04T07:31:16Z</time>
</trkpt>
<trkpt lat="46.711890000" lon="-73.037940000">
<ele>0</ele>
<time>2026-09-04T07:31:17Z</time>
</trkpt>
<trkpt lat="46.710970000" lon="-73.037120000">
<ele>0</ele>
<time>2026-09-04T07:31:18Z</time>
</trkpt>
<trkpt lat="46.710440000" lon="-73.036630000">
<ele>0</ele>
<time>2026-09-04T07:31:19Z</time>
</trkpt>
<trkpt lat="46.710220000" lon="-73.036390000">
<ele>0</ele>
<time>2026-09-04T07:31:20Z</time>
</trkpt>
<trkpt lat="46.709960000" lon="-73.036040000">
<ele>0</ele>
<time>2026-09-04T07:31:21Z</time>
</trkpt>
<trkpt lat="46.709570000" lon="-73.035490000">
<ele>0</ele>
<time>2026-09-04T07:31:22Z</time>
</trkpt>
<trkpt lat="46.708830000" lon="-73.034370000">
<ele>0</ele>
<time>2026-09-04T07:31:23Z</time>
</trkpt>
<trkpt lat="46.708440000" lon="-73.033780000">
<ele>0</ele>
<time>2026-09-04T07:31:24Z</time>
</trkpt>
<trkpt lat="46.708440000" lon="-73.033780000">
<ele>0</ele>
<time>2026-09-04T07:31:25Z</time>
</trkpt>
<trkpt lat="46.708050000" lon="-73.033270000">
<ele>0</ele>
<time>2026-09-04T07:31:26Z</time>
</trkpt>
<trkpt lat="46.707870000" lon="-73.033050000">
<ele>0</ele>
<time>2026-09-04T07:31:27Z</time>
</trkpt>
<trkpt lat="46.707650000" lon="-73.032880000">
<ele>0</ele>
<time>2026-09-04T07:31:28Z</time>
</trkpt>
<trkpt lat="46.707420000" lon="-73.032780000">
<ele>0</ele>
<time>2026-09-04T07:31:29Z</time>
</trkpt>
<trkpt lat="46.706980000" lon="-73.032740000">
<ele>0</ele>
<time>2026-09-04T07:31:30Z</time>
</trkpt>
<trkpt lat="46.705980000" lon="-73.032740000">
<ele>0</ele>
<time>2026-09-04T07:31:31Z</time>
</trkpt>
<trkpt lat="46.705700000" lon="-73.032730000">
<ele>0</ele>
<time>2026-09-04T07:31:32Z</time>
</trkpt>
<trkpt lat="46.705260000" lon="-73.032670000">
<ele>0</ele>
<time>2026-09-04T07:31:33Z</time>
</trkpt>
<trkpt lat="46.704730000" lon="-73.032550000">
<ele>0</ele>
<time>2026-09-04T07:31:34Z</time>
</trkpt>
<trkpt lat="46.704510000" lon="-73.032510000">
<ele>0</ele>
<time>2026-09-04T07:31:35Z</time>
</trkpt>
<trkpt lat="46.704200000" lon="-73.032390000">
<ele>0</ele>
<time>2026-09-04T07:31:36Z</time>
</trkpt>
<trkpt lat="46.703690000" lon="-73.032150000">
<ele>0</ele>
<time>2026-09-04T07:31:37Z</time>
</trkpt>
<trkpt lat="46.703220000" lon="-73.031800000">
<ele>0</ele>
<time>2026-09-04T07:31:38Z</time>
</trkpt>
<trkpt lat="46.703090000" lon="-73.031600000">
<ele>0</ele>
<time>2026-09-04T07:31:39Z</time>
</trkpt>
<trkpt lat="46.702990000" lon="-73.031380000">
<ele>0</ele>
<time>2026-09-04T07:31:40Z</time>
</trkpt>
<trkpt lat="46.702710000" lon="-73.030700000">
<ele>0</ele>
<time>2026-09-04T07:31:41Z</time>
</trkpt>
<trkpt lat="46.702450000" lon="-73.030350000">
<ele>0</ele>
<time>2026-09-04T07:31:42Z</time>
</trkpt>
<trkpt lat="46.701850000" lon="-73.029770000">
<ele>0</ele>
<time>2026-09-04T07:31:43Z</time>
</trkpt>
<trkpt lat="46.701580000" lon="-73.029480000">
<ele>0</ele>
<time>2026-09-04T07:31:44Z</time>
</trkpt>
<trkpt lat="46.701430000" lon="-73.029280000">
<ele>0</ele>
<time>2026-09-04T07:31:45Z</time>
</trkpt>
<trkpt lat="46.700890000" lon="-73.028580000">
<ele>0</ele>
<time>2026-09-04T07:31:46Z</time>
</trkpt>
<trkpt lat="46.700500000" lon="-73.028200000">
<ele>0</ele>
<time>2026-09-04T07:31:47Z</time>
</trkpt>
<trkpt lat="46.700260000" lon="-73.028110000">
<ele>0</ele>
<time>2026-09-04T07:31:48Z</time>
</trkpt>
<trkpt lat="46.700080000" lon="-73.028070000">
<ele>0</ele>
<time>2026-09-04T07:31:49Z</time>
</trkpt>
<trkpt lat="46.699900000" lon="-73.028050000">
<ele>0</ele>
<time>2026-09-04T07:31:50Z</time>
</trkpt>
<trkpt lat="46.699720000" lon="-73.028070000">
<ele>0</ele>
<time>2026-09-04T07:31:51Z</time>
</trkpt>
<trkpt lat="46.699540000" lon="-73.028140000">
<ele>0</ele>
<time>2026-09-04T07:31:52Z</time>
</trkpt>
<trkpt lat="46.699240000" lon="-73.028380000">
<ele>0</ele>
<time>2026-09-04T07:31:53Z</time>
</trkpt>
<trkpt lat="46.698960000" lon="-73.028730000">
<ele>0</ele>
<time>2026-09-04T07:31:54Z</time>
</trkpt>
<trkpt lat="46.698840000" lon="-73.028920000">
<ele>0</ele>
<time>2026-09-04T07:31:55Z</time>
</trkpt>
<trkpt lat="46.698590000" lon="-73.029480000">
<ele>0</ele>
<time>2026-09-04T07:31:56Z</time>
</trkpt>
<trkpt lat="46.698500000" lon="-73.029840000">
<ele>0</ele>
<time>2026-09-04T07:31:57Z</time>
</trkpt>
<trkpt lat="46.698260000" lon="-73.030940000">
<ele>0</ele>
<time>2026-09-04T07:31:58Z</time>
</trkpt>
<trkpt lat="46.698210000" lon="-73.031860000">
<ele>0</ele>
<time>2026-09-04T07:31:59Z</time>
</trkpt>
<trkpt lat="46.698110000" lon="-73.032650000">
<ele>0</ele>
<time>2026-09-04T07:32:00Z</time>
</trkpt>
<trkpt lat="46.697810000" lon="-73.035240000">
<ele>0</ele>
<time>2026-09-04T07:32:01Z</time>
</trkpt>
<trkpt lat="46.697780000" lon="-73.035500000">
<ele>0</ele>
<time>2026-09-04T07:32:02Z</time>
</trkpt>
<trkpt lat="46.697650000" lon="-73.036260000">
<ele>0</ele>
<time>2026-09-04T07:32:03Z</time>
</trkpt>
<trkpt lat="46.697540000" lon="-73.036710000">
<ele>0</ele>
<time>2026-09-04T07:32:04Z</time>
</trkpt>
<trkpt lat="46.697350000" lon="-73.037130000">
<ele>0</ele>
<time>2026-09-04T07:32:05Z</time>
</trkpt>
<trkpt lat="46.697050000" lon="-73.037620000">
<ele>0</ele>
<time>2026-09-04T07:32:06Z</time>
</trkpt>
<trkpt lat="46.696810000" lon="-73.037910000">
<ele>0</ele>
<time>2026-09-04T07:32:07Z</time>
</trkpt>
<trkpt lat="46.696260000" lon="-73.038460000">
<ele>0</ele>
<time>2026-09-04T07:32:08Z</time>
</trkpt>
<trkpt lat="46.696100000" lon="-73.038710000">
<ele>0</ele>
<time>2026-09-04T07:32:09Z</time>
</trkpt>
<trkpt lat="46.695990000" lon="-73.038920000">
<ele>0</ele>
<time>2026-09-04T07:32:10Z</time>
</trkpt>
<trkpt lat="46.695880000" lon="-73.039230000">
<ele>0</ele>
<time>2026-09-04T07:32:11Z</time>
</trkpt>
<trkpt lat="46.695780000" lon="-73.039760000">
<ele>0</ele>
<time>2026-09-04T07:32:12Z</time>
</trkpt>
<trkpt lat="46.695780000" lon="-73.039910000">
<ele>0</ele>
<time>2026-09-04T07:32:13Z</time>
</trkpt>
<trkpt lat="46.695790000" lon="-73.040700000">
<ele>0</ele>
<time>2026-09-04T07:32:14Z</time>
</trkpt>
<trkpt lat="46.695780000" lon="-73.040960000">
<ele>0</ele>
<time>2026-09-04T07:32:15Z</time>
</trkpt>
<trkpt lat="46.695710000" lon="-73.041890000">
<ele>0</ele>
<time>2026-09-04T07:32:16Z</time>
</trkpt>
<trkpt lat="46.695580000" lon="-73.042770000">
<ele>0</ele>
<time>2026-09-04T07:32:17Z</time>
</trkpt>
<trkpt lat="46.695480000" lon="-73.043540000">
<ele>0</ele>
<time>2026-09-04T07:32:18Z</time>
</trkpt>
<trkpt lat="46.695320000" lon="-73.045360000">
<ele>0</ele>
<time>2026-09-04T07:32:19Z</time>
</trkpt>
<trkpt lat="46.695220000" lon="-73.046560000">
<ele>0</ele>
<time>2026-09-04T07:32:20Z</time>
</trkpt>
<trkpt lat="46.695080000" lon="-73.047420000">
<ele>0</ele>
<time>2026-09-04T07:32:21Z</time>
</trkpt>
<trkpt lat="46.694950000" lon="-73.048460000">
<ele>0</ele>
<time>2026-09-04T07:32:22Z</time>
</trkpt>
<trkpt lat="46.694810000" lon="-73.049220000">
<ele>0</ele>
<time>2026-09-04T07:32:23Z</time>
</trkpt>
<trkpt lat="46.694640000" lon="-73.050500000">
<ele>0</ele>
<time>2026-09-04T07:32:24Z</time>
</trkpt>
<trkpt lat="46.694580000" lon="-73.051020000">
<ele>0</ele>
<time>2026-09-04T07:32:25Z</time>
</trkpt>
<trkpt lat="46.694540000" lon="-73.051540000">
<ele>0</ele>
<time>2026-09-04T07:32:26Z</time>
</trkpt>
<trkpt lat="46.694520000" lon="-73.051940000">
<ele>0</ele>
<time>2026-09-04T07:32:27Z</time>
</trkpt>
<trkpt lat="46.694450000" lon="-73.052310000">
<ele>0</ele>
<time>2026-09-04T07:32:28Z</time>
</trkpt>
<trkpt lat="46.694300000" lon="-73.052880000">
<ele>0</ele>
<time>2026-09-04T07:32:29Z</time>
</trkpt>
<trkpt lat="46.694190000" lon="-73.053080000">
<ele>0</ele>
<time>2026-09-04T07:32:30Z</time>
</trkpt>
<trkpt lat="46.694000000" lon="-73.053270000">
<ele>0</ele>
<time>2026-09-04T07:32:31Z</time>
</trkpt>
<trkpt lat="46.693790000" lon="-73.053470000">
<ele>0</ele>
<time>2026-09-04T07:32:32Z</time>
</trkpt>
<trkpt lat="46.693720000" lon="-73.053530000">
<ele>0</ele>
<time>2026-09-04T07:32:33Z</time>
</trkpt>
<trkpt lat="46.693620000" lon="-73.053570000">
<ele>0</ele>
<time>2026-09-04T07:32:34Z</time>
</trkpt>
<trkpt lat="46.693450000" lon="-73.053640000">
<ele>0</ele>
<time>2026-09-04T07:32:35Z</time>
</trkpt>
<trkpt lat="46.693240000" lon="-73.053700000">
<ele>0</ele>
<time>2026-09-04T07:32:36Z</time>
</trkpt>
<trkpt lat="46.692920000" lon="-73.053670000">
<ele>0</ele>
<time>2026-09-04T07:32:37Z</time>
</trkpt>
<trkpt lat="46.692810000" lon="-73.053650000">
<ele>0</ele>
<time>2026-09-04T07:32:38Z</time>
</trkpt>
<trkpt lat="46.692740000" lon="-73.053610000">
<ele>0</ele>
<time>2026-09-04T07:32:39Z</time>
</trkpt>
<trkpt lat="46.692570000" lon="-73.053510000">
<ele>0</ele>
<time>2026-09-04T07:32:40Z</time>
</trkpt>
<trkpt lat="46.692420000" lon="-73.053400000">
<ele>0</ele>
<time>2026-09-04T07:32:41Z</time>
</trkpt>
<trkpt lat="46.692280000" lon="-73.053210000">
<ele>0</ele>
<time>2026-09-04T07:32:42Z</time>
</trkpt>
<trkpt lat="46.692180000" lon="-73.053010000">
<ele>0</ele>
<time>2026-09-04T07:32:43Z</time>
</trkpt>
<trkpt lat="46.692030000" lon="-73.052690000">
<ele>0</ele>
<time>2026-09-04T07:32:44Z</time>
</trkpt>
<trkpt lat="46.691880000" lon="-73.052060000">
<ele>0</ele>
<time>2026-09-04T07:32:45Z</time>
</trkpt>
<trkpt lat="46.691710000" lon="-73.051310000">
<ele>0</ele>
<time>2026-09-04T07:32:46Z</time>
</trkpt>
<trkpt lat="46.691540000" lon="-73.050570000">
<ele>0</ele>
<time>2026-09-04T07:32:47Z</time>
</trkpt>
<trkpt lat="46.691470000" lon="-73.050330000">
<ele>0</ele>
<time>2026-09-04T07:32:48Z</time>
</trkpt>
<trkpt lat="46.691360000" lon="-73.050080000">
<ele>0</ele>
<time>2026-09-04T07:32:49Z</time>
</trkpt>
<trkpt lat="46.691260000" lon="-73.049940000">
<ele>0</ele>
<time>2026-09-04T07:32:50Z</time>
</trkpt>
<trkpt lat="46.691100000" lon="-73.049760000">
<ele>0</ele>
<time>2026-09-04T07:32:51Z</time>
</trkpt>
<trkpt lat="46.690950000" lon="-73.049640000">
<ele>0</ele>
<time>2026-09-04T07:32:52Z</time>
</trkpt>
<trkpt lat="46.690450000" lon="-73.049310000">
<ele>0</ele>
<time>2026-09-04T07:32:53Z</time>
</trkpt>
<trkpt lat="46.690260000" lon="-73.049200000">
<ele>0</ele>
<time>2026-09-04T07:32:54Z</time>
</trkpt>
<trkpt lat="46.690010000" lon="-73.048960000">
<ele>0</ele>
<time>2026-09-04T07:32:55Z</time>
</trkpt>
<trkpt lat="46.689880000" lon="-73.048720000">
<ele>0</ele>
<time>2026-09-04T07:32:56Z</time>
</trkpt>
<trkpt lat="46.689760000" lon="-73.048520000">
<ele>0</ele>
<time>2026-09-04T07:32:57Z</time>
</trkpt>
<trkpt lat="46.689690000" lon="-73.048270000">
<ele>0</ele>
<time>2026-09-04T07:32:58Z</time>
</trkpt>
<trkpt lat="46.689640000" lon="-73.048030000">
<ele>0</ele>
<time>2026-09-04T07:32:59Z</time>
</trkpt>
<trkpt lat="46.689610000" lon="-73.047580000">
<ele>0</ele>
<time>2026-09-04T07:33:00Z</time>
</trkpt>
<trkpt lat="46.689600000" lon="-73.046190000">
<ele>0</ele>
<time>2026-09-04T07:33:01Z</time>
</trkpt>
<trkpt lat="46.689590000" lon="-73.045360000">
<ele>0</ele>
<time>2026-09-04T07:33:02Z</time>
</trkpt>
<trkpt lat="46.689490000" lon="-73.044110000">
<ele>0</ele>
<time>2026-09-04T07:33:03Z</time>
</trkpt>
<trkpt lat="46.689410000" lon="-73.043060000">
<ele>0</ele>
<time>2026-09-04T07:33:04Z</time>
</trkpt>
<trkpt lat="46.689360000" lon="-73.042020000">
<ele>0</ele>
<time>2026-09-04T07:33:05Z</time>
</trkpt>
<trkpt lat="46.689280000" lon="-73.040190000">
<ele>0</ele>
<time>2026-09-04T07:33:06Z</time>
</trkpt>
<trkpt lat="46.689180000" lon="-73.037830000">
<ele>0</ele>
<time>2026-09-04T07:33:07Z</time>
</trkpt>
<trkpt lat="46.689080000" lon="-73.036000000">
<ele>0</ele>
<time>2026-09-04T07:33:08Z</time>
</trkpt>
<trkpt lat="46.689040000" lon="-73.035420000">
<ele>0</ele>
<time>2026-09-04T07:33:09Z</time>
</trkpt>
<trkpt lat="46.688830000" lon="-73.033940000">
<ele>0</ele>
<time>2026-09-04T07:33:10Z</time>
</trkpt>
<trkpt lat="46.688650000" lon="-73.032650000">
<ele>0</ele>
<time>2026-09-04T07:33:11Z</time>
</trkpt>
<trkpt lat="46.688620000" lon="-73.032400000">
<ele>0</ele>
<time>2026-09-04T07:33:12Z</time>
</trkpt>
<trkpt lat="46.688600000" lon="-73.031720000">
<ele>0</ele>
<time>2026-09-04T07:33:13Z</time>
</trkpt>
<trkpt lat="46.688630000" lon="-73.031020000">
<ele>0</ele>
<time>2026-09-04T07:33:14Z</time>
</trkpt>
<trkpt lat="46.688580000" lon="-73.030130000">
<ele>0</ele>
<time>2026-09-04T07:33:15Z</time>
</trkpt>
<trkpt lat="46.688430000" lon="-73.029280000">
<ele>0</ele>
<time>2026-09-04T07:33:16Z</time>
</trkpt>
<trkpt lat="46.688080000" lon="-73.027520000">
<ele>0</ele>
<time>2026-09-04T07:33:17Z</time>
</trkpt>
<trkpt lat="46.687930000" lon="-73.026770000">
<ele>0</ele>
<time>2026-09-04T07:33:18Z</time>
</trkpt>
<trkpt lat="46.687410000" lon="-73.024250000">
<ele>0</ele>
<time>2026-09-04T07:33:19Z</time>
</trkpt>
<trkpt lat="46.687110000" lon="-73.023020000">
<ele>0</ele>
<time>2026-09-04T07:33:20Z</time>
</trkpt>
<trkpt lat="46.687050000" lon="-73.022790000">
<ele>0</ele>
<time>2026-09-04T07:33:21Z</time>
</trkpt>
<trkpt lat="46.686940000" lon="-73.022560000">
<ele>0</ele>
<time>2026-09-04T07:33:22Z</time>
</trkpt>
<trkpt lat="46.686830000" lon="-73.022350000">
<ele>0</ele>
<time>2026-09-04T07:33:23Z</time>
</trkpt>
<trkpt lat="46.686520000" lon="-73.021960000">
<ele>0</ele>
<time>2026-09-04T07:33:24Z</time>
</trkpt>
<trkpt lat="46.686400000" lon="-73.021880000">
<ele>0</ele>
<time>2026-09-04T07:33:25Z</time>
</trkpt>
<trkpt lat="46.686070000" lon="-73.021710000">
<ele>0</ele>
<time>2026-09-04T07:33:26Z</time>
</trkpt>
<trkpt lat="46.685890000" lon="-73.021650000">
<ele>0</ele>
<time>2026-09-04T07:33:27Z</time>
</trkpt>
<trkpt lat="46.685570000" lon="-73.021660000">
<ele>0</ele>
<time>2026-09-04T07:33:28Z</time>
</trkpt>
<trkpt lat="46.685380000" lon="-73.021710000">
<ele>0</ele>
<time>2026-09-04T07:33:29Z</time>
</trkpt>
<trkpt lat="46.685170000" lon="-73.021780000">
<ele>0</ele>
<time>2026-09-04T07:33:30Z</time>
</trkpt>
<trkpt lat="46.684950000" lon="-73.021940000">
<ele>0</ele>
<time>2026-09-04T07:33:31Z</time>
</trkpt>
<trkpt lat="46.684750000" lon="-73.022190000">
<ele>0</ele>
<time>2026-09-04T07:33:32Z</time>
</trkpt>
<trkpt lat="46.684520000" lon="-73.022590000">
<ele>0</ele>
<time>2026-09-04T07:33:33Z</time>
</trkpt>
<trkpt lat="46.684320000" lon="-73.023260000">
<ele>0</ele>
<time>2026-09-04T07:33:34Z</time>
</trkpt>
<trkpt lat="46.684280000" lon="-73.023570000">
<ele>0</ele>
<time>2026-09-04T07:33:35Z</time>
</trkpt>
<trkpt lat="46.684290000" lon="-73.023830000">
<ele>0</ele>
<time>2026-09-04T07:33:36Z</time>
</trkpt>
<trkpt lat="46.684320000" lon="-73.024090000">
<ele>0</ele>
<time>2026-09-04T07:33:37Z</time>
</trkpt>
<trkpt lat="46.684400000" lon="-73.024580000">
<ele>0</ele>
<time>2026-09-04T07:33:38Z</time>
</trkpt>
<trkpt lat="46.684590000" lon="-73.025330000">
<ele>0</ele>
<time>2026-09-04T07:33:39Z</time>
</trkpt>
<trkpt lat="46.685120000" lon="-73.027000000">
<ele>0</ele>
<time>2026-09-04T07:33:40Z</time>
</trkpt>
<trkpt lat="46.685540000" lon="-73.028730000">
<ele>0</ele>
<time>2026-09-04T07:33:41Z</time>
</trkpt>
<trkpt lat="46.685670000" lon="-73.029370000">
<ele>0</ele>
<time>2026-09-04T07:33:42Z</time>
</trkpt>
<trkpt lat="46.685680000" lon="-73.029780000">
<ele>0</ele>
<time>2026-09-04T07:33:43Z</time>
</trkpt>
<trkpt lat="46.685710000" lon="-73.030570000">
<ele>0</ele>
<time>2026-09-04T07:33:44Z</time>
</trkpt>
<trkpt lat="46.685740000" lon="-73.031400000">
<ele>0</ele>
<time>2026-09-04T07:33:45Z</time>
</trkpt>
<trkpt lat="46.685710000" lon="-73.031880000">
<ele>0</ele>
<time>2026-09-04T07:33:46Z</time>
</trkpt>
<trkpt lat="46.685570000" lon="-73.032870000">
<ele>0</ele>
<time>2026-09-04T07:33:47Z</time>
</trkpt>
<trkpt lat="46.685440000" lon="-73.033470000">
<ele>0</ele>
<time>2026-09-04T07:33:48Z</time>
</trkpt>
<trkpt lat="46.685150000" lon="-73.034640000">
<ele>0</ele>
<time>2026-09-04T07:33:49Z</time>
</trkpt>
<trkpt lat="46.684840000" lon="-73.035870000">
<ele>0</ele>
<time>2026-09-04T07:33:50Z</time>
</trkpt>
<trkpt lat="46.684780000" lon="-73.036120000">
<ele>0</ele>
<time>2026-09-04T07:33:51Z</time>
</trkpt>
<trkpt lat="46.684720000" lon="-73.036630000">
<ele>0</ele>
<time>2026-09-04T07:33:52Z</time>
</trkpt>
<trkpt lat="46.684640000" lon="-73.037210000">
<ele>0</ele>
<time>2026-09-04T07:33:53Z</time>
</trkpt>
<trkpt lat="46.684630000" lon="-73.037670000">
<ele>0</ele>
<time>2026-09-04T07:33:54Z</time>
</trkpt>
<trkpt lat="46.684640000" lon="-73.037930000">
<ele>0</ele>
<time>2026-09-04T07:33:55Z</time>
</trkpt>
<trkpt lat="46.684680000" lon="-73.038450000">
<ele>0</ele>
<time>2026-09-04T07:33:56Z</time>
</trkpt>
<trkpt lat="46.684710000" lon="-73.038710000">
<ele>0</ele>
<time>2026-09-04T07:33:57Z</time>
</trkpt>
<trkpt lat="46.684840000" lon="-73.039470000">
<ele>0</ele>
<time>2026-09-04T07:33:58Z</time>
</trkpt>
<trkpt lat="46.685030000" lon="-73.040480000">
<ele>0</ele>
<time>2026-09-04T07:33:59Z</time>
</trkpt>
<trkpt lat="46.685200000" lon="-73.041310000">
<ele>0</ele>
<time>2026-09-04T07:34:00Z</time>
</trkpt>
<trkpt lat="46.685200000" lon="-73.041710000">
<ele>0</ele>
<time>2026-09-04T07:34:01Z</time>
</trkpt>
<trkpt lat="46.685180000" lon="-73.042160000">
<ele>0</ele>
<time>2026-09-04T07:34:02Z</time>
</trkpt>
<trkpt lat="46.685150000" lon="-73.042370000">
<ele>0</ele>
<time>2026-09-04T07:34:03Z</time>
</trkpt>
<trkpt lat="46.685150000" lon="-73.042370000">
<ele>0</ele>
<time>2026-09-04T07:34:04Z</time>
</trkpt>
<trkpt lat="46.685090000" lon="-73.042620000">
<ele>0</ele>
<time>2026-09-04T07:34:05Z</time>
</trkpt>
<trkpt lat="46.685020000" lon="-73.042820000">
<ele>0</ele>
<time>2026-09-04T07:34:06Z</time>
</trkpt>
<trkpt lat="46.684930000" lon="-73.042980000">
<ele>0</ele>
<time>2026-09-04T07:34:07Z</time>
</trkpt>
<trkpt lat="46.684820000" lon="-73.043180000">
<ele>0</ele>
<time>2026-09-04T07:34:08Z</time>
</trkpt>
<trkpt lat="46.684560000" lon="-73.043550000">
<ele>0</ele>
<time>2026-09-04T07:34:09Z</time>
</trkpt>
<trkpt lat="46.684290000" lon="-73.043840000">
<ele>0</ele>
<time>2026-09-04T07:34:10Z</time>
</trkpt>
<trkpt lat="46.684120000" lon="-73.043940000">
<ele>0</ele>
<time>2026-09-04T07:34:11Z</time>
</trkpt>
<trkpt lat="46.683920000" lon="-73.043960000">
<ele>0</ele>
<time>2026-09-04T07:34:12Z</time>
</trkpt>
<trkpt lat="46.683380000" lon="-73.043950000">
<ele>0</ele>
<time>2026-09-04T07:34:13Z</time>
</trkpt>
<trkpt lat="46.683190000" lon="-73.043910000">
<ele>0</ele>
<time>2026-09-04T07:34:14Z</time>
</trkpt>
<trkpt lat="46.683040000" lon="-73.043800000">
<ele>0</ele>
<time>2026-09-04T07:34:15Z</time>
</trkpt>
<trkpt lat="46.682890000" lon="-73.043680000">
<ele>0</ele>
<time>2026-09-04T07:34:16Z</time>
</trkpt>
<trkpt lat="46.682590000" lon="-73.043380000">
<ele>0</ele>
<time>2026-09-04T07:34:17Z</time>
</trkpt>
<trkpt lat="46.682480000" lon="-73.043170000">
<ele>0</ele>
<time>2026-09-04T07:34:18Z</time>
</trkpt>
<trkpt lat="46.682340000" lon="-73.042880000">
<ele>0</ele>
<time>2026-09-04T07:34:19Z</time>
</trkpt>
<trkpt lat="46.682200000" lon="-73.042500000">
<ele>0</ele>
<time>2026-09-04T07:34:20Z</time>
</trkpt>
<trkpt lat="46.682040000" lon="-73.042030000">
<ele>0</ele>
<time>2026-09-04T07:34:21Z</time>
</trkpt>
<trkpt lat="46.681890000" lon="-73.041560000">
<ele>0</ele>
<time>2026-09-04T07:34:22Z</time>
</trkpt>
<trkpt lat="46.681560000" lon="-73.040340000">
<ele>0</ele>
<time>2026-09-04T07:34:23Z</time>
</trkpt>
<trkpt lat="46.681300000" lon="-73.039360000">
<ele>0</ele>
<time>2026-09-04T07:34:24Z</time>
</trkpt>
<trkpt lat="46.680840000" lon="-73.037510000">
<ele>0</ele>
<time>2026-09-04T07:34:25Z</time>
</trkpt>
<trkpt lat="46.680550000" lon="-73.036690000">
<ele>0</ele>
<time>2026-09-04T07:34:26Z</time>
</trkpt>
<trkpt lat="46.680390000" lon="-73.036230000">
<ele>0</ele>
<time>2026-09-04T07:34:27Z</time>
</trkpt>
<trkpt lat="46.680200000" lon="-73.035790000">
<ele>0</ele>
<time>2026-09-04T07:34:28Z</time>
</trkpt>
<trkpt lat="46.679800000" lon="-73.034910000">
<ele>0</ele>
<time>2026-09-04T07:34:29Z</time>
</trkpt>
<trkpt lat="46.679640000" lon="-73.034520000">
<ele>0</ele>
<time>2026-09-04T07:34:30Z</time>
</trkpt>
<trkpt lat="46.679550000" lon="-73.034220000">
<ele>0</ele>
<time>2026-09-04T07:34:31Z</time>
</trkpt>
<trkpt lat="46.679250000" lon="-73.033260000">
<ele>0</ele>
<time>2026-09-04T07:34:32Z</time>
</trkpt>
<trkpt lat="46.678970000" lon="-73.032690000">
<ele>0</ele>
<time>2026-09-04T07:34:33Z</time>
</trkpt>
<trkpt lat="46.678780000" lon="-73.032480000">
<ele>0</ele>
<time>2026-09-04T07:34:34Z</time>
</trkpt>
<trkpt lat="46.678630000" lon="-73.032340000">
<ele>0</ele>
<time>2026-09-04T07:34:35Z</time>
</trkpt>
<trkpt lat="46.678420000" lon="-73.032190000">
<ele>0</ele>
<time>2026-09-04T07:34:36Z</time>
</trkpt>
<trkpt lat="46.678130000" lon="-73.032060000">
<ele>0</ele>
<time>2026-09-04T07:34:37Z</time>
</trkpt>
<trkpt lat="46.677960000" lon="-73.031990000">
<ele>0</ele>
<time>2026-09-04T07:34:38Z</time>
</trkpt>
<trkpt lat="46.677250000" lon="-73.031810000">
<ele>0</ele>
<time>2026-09-04T07:34:39Z</time>
</trkpt>
<trkpt lat="46.677070000" lon="-73.031760000">
<ele>0</ele>
<time>2026-09-04T07:34:40Z</time>
</trkpt>
<trkpt lat="46.676550000" lon="-73.031560000">
<ele>0</ele>
<time>2026-09-04T07:34:41Z</time>
</trkpt>
<trkpt lat="46.676430000" lon="-73.031520000">
<ele>0</ele>
<time>2026-09-04T07:34:42Z</time>
</trkpt>
<trkpt lat="46.675720000" lon="-73.031070000">
<ele>0</ele>
<time>2026-09-04T07:34:43Z</time>
</trkpt>
<trkpt lat="46.675570000" lon="-73.030910000">
<ele>0</ele>
<time>2026-09-04T07:34:44Z</time>
</trkpt>
<trkpt lat="46.675290000" lon="-73.030580000">
<ele>0</ele>
<time>2026-09-04T07:34:45Z</time>
</trkpt>
<trkpt lat="46.675140000" lon="-73.030450000">
<ele>0</ele>
<time>2026-09-04T07:34:46Z</time>
</trkpt>
<trkpt lat="46.674970000" lon="-73.030360000">
<ele>0</ele>
<time>2026-09-04T07:34:47Z</time>
</trkpt>
<trkpt lat="46.674790000" lon="-73.030320000">
<ele>0</ele>
<time>2026-09-04T07:34:48Z</time>
</trkpt>
<trkpt lat="46.674670000" lon="-73.030330000">
<ele>0</ele>
<time>2026-09-04T07:34:49Z</time>
</trkpt>
<trkpt lat="46.674530000" lon="-73.030380000">
<ele>0</ele>
<time>2026-09-04T07:34:50Z</time>
</trkpt>
<trkpt lat="46.674410000" lon="-73.030470000">
<ele>0</ele>
<time>2026-09-04T07:34:51Z</time>
</trkpt>
<trkpt lat="46.674260000" lon="-73.030640000">
<ele>0</ele>
<time>2026-09-04T07:34:52Z</time>
</trkpt>
<trkpt lat="46.674030000" lon="-73.031000000">
<ele>0</ele>
<time>2026-09-04T07:34:53Z</time>
</trkpt>
<trkpt lat="46.673710000" lon="-73.031640000">
<ele>0</ele>
<time>2026-09-04T07:34:54Z</time>
</trkpt>
<trkpt lat="46.673420000" lon="-73.032430000">
<ele>0</ele>
<time>2026-09-04T07:34:55Z</time>
</trkpt>
<trkpt lat="46.673180000" lon="-73.032950000">
<ele>0</ele>
<time>2026-09-04T07:34:56Z</time>
</trkpt>
<trkpt lat="46.672720000" lon="-73.033990000">
<ele>0</ele>
<time>2026-09-04T07:34:57Z</time>
</trkpt>
<trkpt lat="46.672570000" lon="-73.034230000">
<ele>0</ele>
<time>2026-09-04T07:34:58Z</time>
</trkpt>
<trkpt lat="46.672440000" lon="-73.034350000">
<ele>0</ele>
<time>2026-09-04T07:34:59Z</time>
</trkpt>
<trkpt lat="46.672160000" lon="-73.034500000">
<ele>0</ele>
<time>2026-09-04T07:35:00Z</time>
</trkpt>
<trkpt lat="46.672050000" lon="-73.034500000">
<ele>0</ele>
<time>2026-09-04T07:35:01Z</time>
</trkpt>
<trkpt lat="46.671820000" lon="-73.034420000">
<ele>0</ele>
<time>2026-09-04T07:35:02Z</time>
</trkpt>
<trkpt lat="46.671650000" lon="-73.034280000">
<ele>0</ele>
<time>2026-09-04T07:35:03Z</time>
</trkpt>
<trkpt lat="46.671550000" lon="-73.034130000">
<ele>0</ele>
<time>2026-09-04T07:35:04Z</time>
</trkpt>
<trkpt lat="46.671420000" lon="-73.033720000">
<ele>0</ele>
<time>2026-09-04T07:35:05Z</time>
</trkpt>
<trkpt lat="46.671350000" lon="-73.033420000">
<ele>0</ele>
<time>2026-09-04T07:35:06Z</time>
</trkpt>
<trkpt lat="46.671340000" lon="-73.033210000">
<ele>0</ele>
<time>2026-09-04T07:35:07Z</time>
</trkpt>
<trkpt lat="46.671310000" lon="-73.032690000">
<ele>0</ele>
<time>2026-09-04T07:35:08Z</time>
</trkpt>
<trkpt lat="46.671280000" lon="-73.032300000">
<ele>0</ele>
<time>2026-09-04T07:35:09Z</time>
</trkpt>
<trkpt lat="46.671270000" lon="-73.031560000">
<ele>0</ele>
<time>2026-09-04T07:35:10Z</time>
</trkpt>
<trkpt lat="46.671320000" lon="-73.031180000">
<ele>0</ele>
<time>2026-09-04T07:35:11Z</time>
</trkpt>
<trkpt lat="46.671380000" lon="-73.030960000">
<ele>0</ele>
<time>2026-09-04T07:35:12Z</time>
</trkpt>
<trkpt lat="46.671490000" lon="-73.030620000">
<ele>0</ele>
<time>2026-09-04T07:35:13Z</time>
</trkpt>
<trkpt lat="46.671600000" lon="-73.030160000">
<ele>0</ele>
<time>2026-09-04T07:35:14Z</time>
</trkpt>
<trkpt lat="46.671720000" lon="-73.029130000">
<ele>0</ele>
<time>2026-09-04T07:35:15Z</time>
</trkpt>
<trkpt lat="46.671770000" lon="-73.028610000">
<ele>0</ele>
<time>2026-09-04T07:35:16Z</time>
</trkpt>
<trkpt lat="46.671760000" lon="-73.028350000">
<ele>0</ele>
<time>2026-09-04T07:35:17Z</time>
</trkpt>
<trkpt lat="46.671740000" lon="-73.027390000">
<ele>0</ele>
<time>2026-09-04T07:35:18Z</time>
</trkpt>
<trkpt lat="46.671490000" lon="-73.025770000">
<ele>0</ele>
<time>2026-09-04T07:35:19Z</time>
</trkpt>
<trkpt lat="46.671360000" lon="-73.025210000">
<ele>0</ele>
<time>2026-09-04T07:35:20Z</time>
</trkpt>
<trkpt lat="46.671070000" lon="-73.024340000">
<ele>0</ele>
<time>2026-09-04T07:35:21Z</time>
</trkpt>
<trkpt lat="46.670880000" lon="-73.023880000">
<ele>0</ele>
<time>2026-09-04T07:35:22Z</time>
</trkpt>
<trkpt lat="46.670500000" lon="-73.023160000">
<ele>0</ele>
<time>2026-09-04T07:35:23Z</time>
</trkpt>
<trkpt lat="46.670240000" lon="-73.022740000">
<ele>0</ele>
<time>2026-09-04T07:35:24Z</time>
</trkpt>
<trkpt lat="46.670060000" lon="-73.022490000">
<ele>0</ele>
<time>2026-09-04T07:35:25Z</time>
</trkpt>
<trkpt lat="46.669790000" lon="-73.022140000">
<ele>0</ele>
<time>2026-09-04T07:35:26Z</time>
</trkpt>
<trkpt lat="46.669560000" lon="-73.021940000">
<ele>0</ele>
<time>2026-09-04T07:35:27Z</time>
</trkpt>
<trkpt lat="46.669330000" lon="-73.021830000">
<ele>0</ele>
<time>2026-09-04T07:35:28Z</time>
</trkpt>
<trkpt lat="46.669230000" lon="-73.021820000">
<ele>0</ele>
<time>2026-09-04T07:35:29Z</time>
</trkpt>
<trkpt lat="46.669120000" lon="-73.021840000">
<ele>0</ele>
<time>2026-09-04T07:35:30Z</time>
</trkpt>
<trkpt lat="46.668790000" lon="-73.022030000">
<ele>0</ele>
<time>2026-09-04T07:35:31Z</time>
</trkpt>
<trkpt lat="46.668540000" lon="-73.022170000">
<ele>0</ele>
<time>2026-09-04T07:35:32Z</time>
</trkpt>
<trkpt lat="46.668270000" lon="-73.022250000">
<ele>0</ele>
<time>2026-09-04T07:35:33Z</time>
</trkpt>
<trkpt lat="46.668090000" lon="-73.022250000">
<ele>0</ele>
<time>2026-09-04T07:35:34Z</time>
</trkpt>
<trkpt lat="46.667920000" lon="-73.022210000">
<ele>0</ele>
<time>2026-09-04T07:35:35Z</time>
</trkpt>
<trkpt lat="46.667740000" lon="-73.022140000">
<ele>0</ele>
<time>2026-09-04T07:35:36Z</time>
</trkpt>
<trkpt lat="46.667580000" lon="-73.022030000">
<ele>0</ele>
<time>2026-09-04T07:35:37Z</time>
</trkpt>
<trkpt lat="46.667270000" lon="-73.021620000">
<ele>0</ele>
<time>2026-09-04T07:35:38Z</time>
</trkpt>
<trkpt lat="46.666740000" lon="-73.020670000">
<ele>0</ele>
<time>2026-09-04T07:35:39Z</time>
</trkpt>
<trkpt lat="46.666440000" lon="-73.020350000">
<ele>0</ele>
<time>2026-09-04T07:35:40Z</time>
</trkpt>
<trkpt lat="46.666230000" lon="-73.020160000">
<ele>0</ele>
<time>2026-09-04T07:35:41Z</time>
</trkpt>
<trkpt lat="46.665510000" lon="-73.019510000">
<ele>0</ele>
<time>2026-09-04T07:35:42Z</time>
</trkpt>
<trkpt lat="46.664890000" lon="-73.018850000">
<ele>0</ele>
<time>2026-09-04T07:35:43Z</time>
</trkpt>
<trkpt lat="46.664160000" lon="-73.018080000">
<ele>0</ele>
<time>2026-09-04T07:35:44Z</time>
</trkpt>
<trkpt lat="46.663940000" lon="-73.017830000">
<ele>0</ele>
<time>2026-09-04T07:35:45Z</time>
</trkpt>
<trkpt lat="46.663780000" lon="-73.017540000">
<ele>0</ele>
<time>2026-09-04T07:35:46Z</time>
</trkpt>
<trkpt lat="46.663670000" lon="-73.017330000">
<ele>0</ele>
<time>2026-09-04T07:35:47Z</time>
</trkpt>
<trkpt lat="46.663600000" lon="-73.017090000">
<ele>0</ele>
<time>2026-09-04T07:35:48Z</time>
</trkpt>
<trkpt lat="46.663520000" lon="-73.016710000">
<ele>0</ele>
<time>2026-09-04T07:35:49Z</time>
</trkpt>
<trkpt lat="46.663520000" lon="-73.016320000">
<ele>0</ele>
<time>2026-09-04T07:35:50Z</time>
</trkpt>
<trkpt lat="46.663560000" lon="-73.015720000">
<ele>0</ele>
<time>2026-09-04T07:35:51Z</time>
</trkpt>
<trkpt lat="46.663560000" lon="-73.015020000">
<ele>0</ele>
<time>2026-09-04T07:35:52Z</time>
</trkpt>
<trkpt lat="46.663530000" lon="-73.014760000">
<ele>0</ele>
<time>2026-09-04T07:35:53Z</time>
</trkpt>
<trkpt lat="46.663460000" lon="-73.014520000">
<ele>0</ele>
<time>2026-09-04T07:35:54Z</time>
</trkpt>
<trkpt lat="46.663370000" lon="-73.014300000">
<ele>0</ele>
<time>2026-09-04T07:35:55Z</time>
</trkpt>
<trkpt lat="46.663090000" lon="-73.013810000">
<ele>0</ele>
<time>2026-09-04T07:35:56Z</time>
</trkpt>
<trkpt lat="46.662900000" lon="-73.013640000">
<ele>0</ele>
<time>2026-09-04T07:35:57Z</time>
</trkpt>
<trkpt lat="46.662750000" lon="-73.013530000">
<ele>0</ele>
<time>2026-09-04T07:35:58Z</time>
</trkpt>
<trkpt lat="46.662510000" lon="-73.013440000">
<ele>0</ele>
<time>2026-09-04T07:35:59Z</time>
</trkpt>
<trkpt lat="46.662270000" lon="-73.013350000">
<ele>0</ele>
<time>2026-09-04T07:36:00Z</time>
</trkpt>
<trkpt lat="46.662000000" lon="-73.013290000">
<ele>0</ele>
<time>2026-09-04T07:36:01Z</time>
</trkpt>
<trkpt lat="46.661780000" lon="-73.013180000">
<ele>0</ele>
<time>2026-09-04T07:36:02Z</time>
</trkpt>
<trkpt lat="46.661610000" lon="-73.013030000">
<ele>0</ele>
<time>2026-09-04T07:36:03Z</time>
</trkpt>
<trkpt lat="46.661470000" lon="-73.012890000">
<ele>0</ele>
<time>2026-09-04T07:36:04Z</time>
</trkpt>
<trkpt lat="46.661240000" lon="-73.012570000">
<ele>0</ele>
<time>2026-09-04T07:36:05Z</time>
</trkpt>
<trkpt lat="46.660740000" lon="-73.011740000">
<ele>0</ele>
<time>2026-09-04T07:36:06Z</time>
</trkpt>
<trkpt lat="46.660300000" lon="-73.010910000">
<ele>0</ele>
<time>2026-09-04T07:36:07Z</time>
</trkpt>
<trkpt lat="46.660280000" lon="-73.010940000">
<ele>0</ele>
<time>2026-09-04T07:36:08Z</time>
</trkpt>
<trkpt lat="46.660280000" lon="-73.010940000">
<ele>0</ele>
<time>2026-09-04T07:36:09Z</time>
</trkpt>
<trkpt lat="46.659840000" lon="-73.011450000">
<ele>0</ele>
<time>2026-09-04T07:36:10Z</time>
</trkpt>
<trkpt lat="46.659410000" lon="-73.011940000">
<ele>0</ele>
<time>2026-09-04T07:36:11Z</time>
</trkpt>
<trkpt lat="46.659220000" lon="-73.012160000">
<ele>0</ele>
<time>2026-09-04T07:36:12Z</time>
</trkpt>
<trkpt lat="46.659240000" lon="-73.012180000">
<ele>0</ele>
<time>2026-09-04T07:36:13Z</time>
</trkpt>
<trkpt lat="46.659240000" lon="-73.012180000">
<ele>0</ele>
<time>2026-09-04T07:36:14Z</time>
</trkpt>
<trkpt lat="46.659420000" lon="-73.012520000">
<ele>0</ele>
<time>2026-09-04T07:36:15Z</time>
</trkpt>
</trkseg>
</trk>
</gpx>
